Warning: Javascript must be enabled to use all the features on this page!


Page Loading - Please Wait...

Click to hideNews Bulletins
Click to hide state-specific text

Welcome to the NWIS-Web for the Arizona Water Science Center


The majority of USGS Gaging Stations are funded though a cooperative program between the USGS other interested agencies.
Follow this link for information on the Cooperative Water Program with the USGS.


Threatened and Endangered USGS Gaging Stations in Arizona
Colorado Basin River Forecast Center - provided by the National Weather Service, AHPS. CBRFC on Google Maps.
Arizona Water Science Center Home Page

USGS 09471000 SAN PEDRO RIVER AT CHARLESTON, AZ.

PROVISIONAL DATA SUBJECT TO REVISION

Click to hidestation-specific text
Station operated in cooperation with Cochise County, the Bureau of Land Management, and the Arizona Department of Water Resources.

HIGH DATA RATE (Site data are transmitted & updated hourly)
rainfall Arrow
This station managed by the Tucson Field Office; USGS, AZ-WSC.

Available Parameters Available Period
All 3 Available Parameters for this site
  
00065 Gage height [Bubbler Stage Sensor] 2007-10-01  2014-09-21
00060 Discharge 2007-10-01  2014-09-21
00045 Precipitation 2014-05-24  2014-09-21

Graph
Graph w/ stats
Graph w/o stats
Graph w/ (up to 3) parms
Table
Tab-separated
Days  (18)
 

  -- or --
Begin date
 

End date
 

Summary of all available data for this site
Instantaneous-data availability statement






Date / Time




Gage
height,
feet,
[Bubbler
Stage
Sensor]




Dis-
charge,
ft3/s,



Precip-
itation
total,
inches,
09/03/2014 00:00 MST2.25P  18.6P  0.00P  
09/03/2014 00:15 MST2.25P  18.6P  0.00P  
09/03/2014 00:30 MST2.25P  18.6P  0.00P  
09/03/2014 00:45 MST2.25P  18.6P  0.00P  
09/03/2014 01:00 MST2.25P  18.6P  0.00P  
09/03/2014 01:15 MST2.25P  18.6P  0.00P  
09/03/2014 01:30 MST2.25P  18.6P  0.00P  
09/03/2014 01:45 MST2.25P  18.6P  0.00P  
09/03/2014 02:00 MST2.26P  19.2P  0.00P  
09/03/2014 02:15 MST2.26P  19.2P  0.00P  
09/03/2014 02:30 MST2.26P  19.2P  0.00P  
09/03/2014 02:45 MST2.26P  19.2P  0.00P  
09/03/2014 03:00 MST2.26P  19.2P  0.00P  
09/03/2014 03:15 MST2.26P  19.2P  0.00P  
09/03/2014 03:30 MST2.26P  19.2P  0.00P  
09/03/2014 03:45 MST2.26P  19.2P  0.00P  
09/03/2014 04:00 MST2.26P  19.2P  0.00P  
09/03/2014 04:15 MST2.26P  19.2P  0.00P  
09/03/2014 04:30 MST2.26P  19.2P  0.00P  
09/03/2014 04:45 MST2.26P  19.2P  0.00P  
09/03/2014 05:00 MST2.26P  19.2P  0.00P  
09/03/2014 05:15 MST2.26P  19.2P  0.00P  
09/03/2014 05:30 MST2.26P  19.2P  0.00P  
09/03/2014 05:45 MST2.26P  19.2P  0.00P  
09/03/2014 06:00 MST2.26P  19.2P  0.00P  
09/03/2014 06:15 MST2.26P  19.2P  0.00P  
09/03/2014 06:30 MST2.26P  19.2P  0.00P  
09/03/2014 06:45 MST2.26P  19.2P  0.00P  
09/03/2014 07:00 MST2.27P  19.8P  0.00P  
09/03/2014 07:15 MST2.26P  19.2P  0.00P  
09/03/2014 07:30 MST2.27P  19.8P  0.00P  
09/03/2014 07:45 MST2.26P  19.2P  0.00P  
09/03/2014 08:00 MST2.26P  19.2P  0.00P  
09/03/2014 08:15 MST2.26P  19.2P  0.00P  
09/03/2014 08:30 MST2.27P  19.8P  0.00P  
09/03/2014 08:45 MST2.26P  19.2P  0.00P  
09/03/2014 09:00 MST2.26P  19.2P  0.00P  
09/03/2014 09:15 MST2.25P  18.6P  0.00P  
09/03/2014 09:30 MST2.26P  19.2P  0.00P  
09/03/2014 09:45 MST2.26P  19.2P  0.00P  
09/03/2014 10:00 MST2.27P  19.8P  0.00P  
09/03/2014 10:15 MST2.27P  19.8P  0.00P  
09/03/2014 10:30 MST2.27P  19.8P  0.00P  
09/03/2014 10:45 MST2.26P  19.2P  0.00P  
09/03/2014 11:00 MST2.26P  19.2P  0.00P  
09/03/2014 11:15 MST2.25P  18.6P  0.00P  
09/03/2014 11:30 MST2.25P  18.6P  0.00P  
09/03/2014 11:45 MST2.26P  19.2P  0.00P  
09/03/2014 12:00 MST2.27P  19.8P  0.00P  
09/03/2014 12:15 MST2.27P  19.8P  0.00P  
09/03/2014 12:30 MST2.27P  19.8P  0.00P  
09/03/2014 12:45 MST2.27P  19.8P  0.00P  
09/03/2014 13:00 MST2.26P  19.2P  0.00P  
09/03/2014 13:15 MST2.26P  19.2P  0.00P  
09/03/2014 13:30 MST2.27P  19.8P  0.00P  
09/03/2014 13:45 MST2.27P  19.8P  0.00P  
09/03/2014 14:00 MST2.27P  19.8P  0.00P  
09/03/2014 14:15 MST2.27P  19.8P  0.00P  
09/03/2014 14:30 MST2.27P  19.8P  0.00P  
09/03/2014 14:45 MST2.27P  19.8P  0.00P  
09/03/2014 15:00 MST2.27P  19.8P  0.00P  
09/03/2014 15:15 MST2.27P  19.8P  0.00P  
09/03/2014 15:30 MST2.26P  19.2P  0.00P  
09/03/2014 15:45 MST2.27P  19.8P  0.00P  
09/03/2014 16:00 MST2.28P  20.4P  0.00P  
09/03/2014 16:15 MST2.27P  19.8P  0.00P  
09/03/2014 16:30 MST2.26P  19.2P  0.00P  
09/03/2014 16:45 MST2.25P  18.6P  0.00P  
09/03/2014 17:00 MST2.25P  18.6P  0.00P  
09/03/2014 17:15 MST2.26P  19.2P  0.00P  
09/03/2014 17:30 MST2.25P  18.6P  0.00P  
09/03/2014 17:45 MST2.26P  19.2P  0.00P  
09/03/2014 18:00 MST2.26P  19.2P  0.00P  
09/03/2014 18:15 MST2.24P  17.9P  0.00P  
09/03/2014 18:30 MST2.24P  17.9P  0.00P  
09/03/2014 18:45 MST2.25P  18.6P  0.00P  
09/03/2014 19:00 MST2.24P  17.9P  0.02P  
09/03/2014 19:15 MST2.25P  18.6P  0.00P  
09/03/2014 19:29 MST2.25P  18.6P  0.00P  
09/03/2014 19:30 MST2.25P  18.6P  0.00P  
09/03/2014 19:44 MST2.25P  18.6P  0.00P  
09/03/2014 19:45 MST2.25P  18.6P  0.00P  
09/03/2014 20:00 MST2.25P  18.6P  0.00P  
09/03/2014 20:15 MST2.25P  18.6P  0.00P  
09/03/2014 20:30 MST2.25P  18.6P  0.00P  
09/03/2014 20:45 MST2.23P  17.3P  0.00P  
09/03/2014 21:00 MST2.27P  19.8P  0.00P  
09/03/2014 21:15 MST2.31P  22.4P  0.00P  
09/03/2014 21:30 MST2.31P  22.4P  0.00P  
09/03/2014 21:45 MST2.27P  19.8P  0.00P  
09/03/2014 22:00 MST2.33P  23.8P  0.00P  
09/03/2014 22:15 MST2.28P  20.4P  0.00P  
09/03/2014 22:30 MST2.26P  19.2P  0.00P  
09/03/2014 22:45 MST2.26P  19.2P  0.00P  
09/03/2014 23:00 MST2.27P  19.8P  0.00P  
09/03/2014 23:15 MST2.27P  19.8P  0.00P  
09/03/2014 23:30 MST2.25P  18.6P  0.00P  
09/03/2014 23:45 MST2.25P  18.6P  0.00P  
09/04/2014 00:00 MST2.25P  18.6P  0.00P  
09/04/2014 00:15 MST2.27P  19.8P  0.00P  
09/04/2014 00:30 MST2.29P  21.1P  0.00P  
09/04/2014 00:45 MST2.26P  19.2P  0.00P  
09/04/2014 01:00 MST2.29P  21.1P  0.00P  
09/04/2014 01:15 MST2.27P  19.8P  0.00P  
09/04/2014 01:30 MST2.28P  20.4P  0.00P  
09/04/2014 01:45 MST2.28P  20.4P  0.00P  
09/04/2014 02:00 MST2.28P  20.4P  0.00P  
09/04/2014 02:15 MST2.27P  19.8P  0.00P  
09/04/2014 02:30 MST2.28P  20.4P  0.00P  
09/04/2014 02:45 MST2.28P  20.4P  0.00P  
09/04/2014 03:00 MST2.28P  20.4P  0.00P  
09/04/2014 03:15 MST2.29P  21.1P  0.00P  
09/04/2014 03:30 MST2.30P  21.7P  0.00P  
09/04/2014 03:45 MST2.29P  21.1P  0.00P  
09/04/2014 04:00 MST2.29P  21.1P  0.00P  
09/04/2014 04:15 MST2.28P  20.4P  0.00P  
09/04/2014 04:30 MST2.29P  21.1P  0.00P  
09/04/2014 04:45 MST2.28P  20.4P  0.00P  
09/04/2014 05:00 MST2.30P  21.7P  0.00P  
09/04/2014 05:15 MST2.30P  21.7P  0.00P  
09/04/2014 05:30 MST2.30P  21.7P  0.00P  
09/04/2014 05:45 MST2.31P  22.4P  0.00P  
09/04/2014 06:00 MST2.31P  22.4P  0.00P  
09/04/2014 06:15 MST2.32P  23.1P  0.00P  
09/04/2014 06:30 MST2.31P  22.4P  0.00P  
09/04/2014 06:45 MST2.32P  23.1P  0.00P  
09/04/2014 07:00 MST2.32P  23.1P  0.00P  
09/04/2014 07:15 MST2.32P  23.1P  0.00P  
09/04/2014 07:30 MST2.32P  23.1P  0.00P  
09/04/2014 07:45 MST2.31P  22.4P  0.00P  
09/04/2014 08:00 MST2.30P  21.7P  0.00P  
09/04/2014 08:15 MST2.30P  21.7P  0.00P  
09/04/2014 08:30 MST2.31P  22.4P  0.00P  
09/04/2014 08:45 MST2.31P  22.4P  0.00P  
09/04/2014 09:00 MST2.32P  23.1P  0.00P  
09/04/2014 09:15 MST2.31P  22.4P  0.00P  
09/04/2014 09:30 MST2.30P  21.7P  0.00P  
09/04/2014 09:45 MST2.28P  20.4P  0.00P  
09/04/2014 10:00 MST2.29P  21.1P  0.00P  
09/04/2014 10:15 MST2.29P  21.1P  0.00P  
09/04/2014 10:30 MST2.29P  21.1P  0.00P  
09/04/2014 10:45 MST2.29P  21.1P  0.00P  
09/04/2014 11:00 MST2.29P  21.1P  0.00P  
09/04/2014 11:15 MST2.26P  19.2P  0.00P  
09/04/2014 11:30 MST2.28P  20.4P  0.00P  
09/04/2014 11:45 MST2.28P  20.4P  0.00P  
09/04/2014 12:00 MST2.28P  20.4P  0.00P  
09/04/2014 12:15 MST2.28P  20.4P  0.00P  
09/04/2014 12:30 MST2.27P  19.8P  0.00P  
09/04/2014 12:45 MST2.28P  20.4P  0.00P  
09/04/2014 13:00 MST2.28P  20.4P  0.00P  
09/04/2014 13:15 MST2.28P  20.4P  0.00P  
09/04/2014 13:30 MST2.28P  20.4P  0.00P  
09/04/2014 13:45 MST2.28P  20.4P  0.00P  
09/04/2014 14:00 MST2.28P  20.4P  0.00P  
09/04/2014 14:15 MST2.28P  20.4P  0.00P  
09/04/2014 14:30 MST2.26P  19.2P  0.00P  
09/04/2014 14:45 MST2.28P  20.4P  0.00P  
09/04/2014 15:00 MST2.28P  20.4P  0.00P  
09/04/2014 15:15 MST2.28P  20.4P  0.00P  
09/04/2014 15:30 MST2.28P  20.4P  0.00P  
09/04/2014 15:45 MST2.28P  20.4P  0.00P  
09/04/2014 16:00 MST2.25P  18.6P  0.00P  
09/04/2014 16:15 MST2.28P  20.4P  0.00P  
09/04/2014 16:30 MST2.28P  20.4P  0.00P  
09/04/2014 16:45 MST2.24P  17.9P  0.00P  
09/04/2014 17:00 MST2.24P  17.9P  0.00P  
09/04/2014 17:15 MST2.25P  18.6P  0.00P  
09/04/2014 17:30 MST2.25P  18.6P  0.00P  
09/04/2014 17:45 MST2.25P  18.6P  0.00P  
09/04/2014 18:00 MST2.24P  17.9P  0.01P  
09/04/2014 18:15 MST2.24P  17.9P  0.00P  
09/04/2014 18:30 MST2.25P  18.6P  0.00P  
09/04/2014 18:45 MST2.23P  17.3P  0.00P  
09/04/2014 19:00 MST2.24P  17.9P  0.01P  
09/04/2014 19:15 MST2.24P  17.9P  0.00P  
09/04/2014 19:29 MST2.24P  17.9P  0.00P  
09/04/2014 19:30 MST2.24P  17.9P  0.00P  
09/04/2014 19:44 MST2.24P  17.9P  0.00P  
09/04/2014 19:45 MST2.24P  17.9P  0.01P  
09/04/2014 20:00 MST2.24P  17.9P  0.01P  
09/04/2014 20:15 MST2.24P  17.9P  0.00P  
09/04/2014 20:30 MST2.24P  17.9P  0.00P  
09/04/2014 20:45 MST2.23P  17.3P  0.00P  
09/04/2014 21:00 MST2.25P  18.6P  0.00P  
09/04/2014 21:15 MST2.24P  17.9P  0.00P  
09/04/2014 21:30 MST2.25P  18.6P  0.00P  
09/04/2014 21:45 MST2.24P  17.9P  0.00P  
09/04/2014 22:00 MST2.24P  17.9P  0.00P  
09/04/2014 22:15 MST2.25P  18.6P  0.00P  
09/04/2014 22:30 MST2.24P  17.9P  0.00P  
09/04/2014 22:45 MST2.23P  17.3P  0.00P  
09/04/2014 23:00 MST2.25P  18.6P  0.00P  
09/04/2014 23:15 MST2.24P  17.9P  0.00P  
09/04/2014 23:30 MST2.24P  17.9P  0.00P  
09/04/2014 23:45 MST2.24P  17.9P  0.00P  
09/05/2014 00:00 MST2.24P  17.9P  0.00P  
09/05/2014 00:15 MST2.25P  18.6P  0.00P  
09/05/2014 00:30 MST2.23P  17.3P  0.00P  
09/05/2014 00:45 MST2.23P  17.3P  0.00P  
09/05/2014 01:00 MST2.25P  18.6P  0.00P  
09/05/2014 01:15 MST2.25P  18.6P  0.00P  
09/05/2014 01:30 MST2.25P  18.6P  0.00P  
09/05/2014 01:45 MST2.25P  18.6P  0.00P  
09/05/2014 02:00 MST2.24P  17.9P  0.00P  
09/05/2014 02:15 MST2.25P  18.6P  0.00P  
09/05/2014 02:30 MST2.25P  18.6P  0.00P  
09/05/2014 02:45 MST2.25P  18.6P  0.00P  
09/05/2014 03:00 MST2.25P  18.6P  0.00P  
09/05/2014 03:15 MST2.24P  17.9P  0.00P  
09/05/2014 03:30 MST2.24P  17.9P  0.00P  
09/05/2014 03:45 MST2.25P  18.6P  0.00P  
09/05/2014 04:00 MST2.25P  18.6P  0.00P  
09/05/2014 04:15 MST2.25P  18.6P  0.00P  
09/05/2014 04:30 MST2.25P  18.6P  0.00P  
09/05/2014 04:45 MST2.25P  18.6P  0.00P  
09/05/2014 05:00 MST2.26P  19.2P  0.00P  
09/05/2014 05:15 MST2.26P  19.2P  0.00P  
09/05/2014 05:30 MST2.24P  17.9P  0.00P  
09/05/2014 05:45 MST2.25P  18.6P  0.00P  
09/05/2014 06:00 MST2.25P  18.6P  0.00P  
09/05/2014 06:15 MST2.25P  18.6P  0.00P  
09/05/2014 06:30 MST2.25P  18.6P  0.00P  
09/05/2014 06:45 MST2.26P  19.2P  0.00P  
09/05/2014 07:00 MST2.26P  19.2P  0.00P  
09/05/2014 07:15 MST2.26P  19.2P  0.00P  
09/05/2014 07:30 MST2.25P  18.6P  0.00P  
09/05/2014 07:45 MST2.25P  18.6P  0.00P  
09/05/2014 08:00 MST2.26P  19.2P  0.00P  
09/05/2014 08:15 MST2.26P  19.2P  0.00P  
09/05/2014 08:30 MST2.25P  18.6P  0.00P  
09/05/2014 08:45 MST2.26P  19.2P  0.00P  
09/05/2014 09:00 MST2.26P  19.2P  0.00P  
09/05/2014 09:15 MST2.25P  18.6P  0.00P  
09/05/2014 09:30 MST2.25P  18.6P  0.00P  
09/05/2014 09:45 MST2.26P  19.2P  0.00P  
09/05/2014 10:00 MST2.24P  17.9P  0.00P  
09/05/2014 10:15 MST2.26P  19.2P  0.00P  
09/05/2014 10:30 MST2.26P  19.2P  0.00P  
09/05/2014 10:45 MST2.26P  19.2P  0.00P  
09/05/2014 11:00 MST2.26P  19.2P  0.00P  
09/05/2014 11:15 MST2.26P  19.2P  0.00P  
09/05/2014 11:30 MST2.26P  19.2P  0.00P  
09/05/2014 11:45 MST2.27P  19.8P  0.00P  
09/05/2014 12:00 MST2.26P  19.2P  0.00P  
09/05/2014 12:15 MST2.26P  19.2P  0.00P  
09/05/2014 12:30 MST2.27P  19.8P  0.00P  
09/05/2014 12:45 MST2.37P  26.8P  0.00P  
09/05/2014 13:00 MST2.48P  36.1P  0.00P  
09/05/2014 13:15 MST2.54P  42.0P  0.00P  
09/05/2014 13:30 MST2.56P  44.1P  0.00P  
09/05/2014 13:45 MST2.59P  47.4P  0.00P  
09/05/2014 14:00 MST2.58P  46.3P  0.00P  
09/05/2014 14:15 MST2.58P  46.3P  0.00P  
09/05/2014 14:30 MST2.58P  46.3P  0.00P  
09/05/2014 14:45 MST2.57P  45.2P  0.00P  
09/05/2014 15:00 MST2.57P  45.2P  0.00P  
09/05/2014 15:15 MST2.57P  45.2P  0.00P  
09/05/2014 15:30 MST2.56P  44.1P  0.00P  
09/05/2014 15:45 MST2.59P  47.4P  0.00P  
09/05/2014 16:00 MST2.58P  46.3P  0.00P  
09/05/2014 16:15 MST2.57P  45.2P  0.00P  
09/05/2014 16:30 MST2.56P  44.1P  0.00P  
09/05/2014 16:45 MST2.56P  44.1P  0.00P  
09/05/2014 17:00 MST2.54P  42.0P  0.00P  
09/05/2014 17:15 MST2.50P  38.0P  0.00P  
09/05/2014 17:30 MST2.50P  38.0P  0.00P  
09/05/2014 17:45 MST2.49P  37.1P  0.00P  
09/05/2014 18:00 MST2.48P  36.1P  0.00P  
09/05/2014 18:15 MST2.48P  36.1P  0.00P  
09/05/2014 18:30 MST2.46P  34.3P  0.00P  
09/05/2014 18:45 MST2.46P  34.3P  0.00P  
09/05/2014 19:00 MST2.44P  32.5P  0.00P  
09/05/2014 19:14 MST2.43P  31.6P  0.00P  
09/05/2014 19:15 MST2.43P  31.6P  0.00P  
09/05/2014 19:29 MST2.44P  32.5P  0.00P  
09/05/2014 19:30 MST2.44P  32.5P  0.00P  
09/05/2014 19:45 MST2.43P  31.6P  0.00P  
09/05/2014 20:00 MST2.42P  30.8P  0.00P  
09/05/2014 20:15 MST2.40P  29.1P  0.00P  
09/05/2014 20:30 MST2.41P  29.9P  0.00P  
09/05/2014 20:45 MST2.41P  29.9P  0.00P  
09/05/2014 21:00 MST2.40P  29.1P  0.00P  
09/05/2014 21:15 MST2.40P  29.1P  0.00P  
09/05/2014 21:30 MST2.39P  28.3P  0.00P  
09/05/2014 21:45 MST2.38P  27.5P  0.00P  
09/05/2014 22:00 MST2.38P  27.5P  0.00P  
09/05/2014 22:15 MST2.38P  27.5P  0.00P  
09/05/2014 22:30 MST2.36P  26.0P  0.00P  
09/05/2014 22:45 MST2.37P  26.8P  0.00P  
09/05/2014 23:00 MST2.36P  26.0P  0.00P  
09/05/2014 23:15 MST2.37P  26.8P  0.00P  
09/05/2014 23:30 MST2.36P  26.0P  0.00P  
09/05/2014 23:45 MST2.35P  25.2P  0.00P  
09/06/2014 00:00 MST2.35P  25.2P  0.00P  
09/06/2014 00:15 MST2.36P  26.0P  0.00P  
09/06/2014 00:30 MST2.35P  25.2P  0.00P  
09/06/2014 00:45 MST2.34P  24.5P  0.00P  
09/06/2014 01:00 MST2.35P  25.2P  0.00P  
09/06/2014 01:15 MST2.33P  23.8P  0.00P  
09/06/2014 01:30 MST2.34P  24.5P  0.00P  
09/06/2014 01:45 MST2.34P  24.5P  0.00P  
09/06/2014 02:00 MST2.34P  24.5P  0.00P  
09/06/2014 02:15 MST2.34P  24.5P  0.00P  
09/06/2014 02:30 MST2.34P  24.5P  0.00P  
09/06/2014 02:45 MST2.33P  23.8P  0.00P  
09/06/2014 03:00 MST2.33P  23.8P  0.00P  
09/06/2014 03:15 MST2.33P  23.8P  0.00P  
09/06/2014 03:30 MST2.33P  23.8P  0.00P  
09/06/2014 03:45 MST2.33P  23.8P  0.00P  
09/06/2014 04:00 MST2.33P  23.8P  0.00P  
09/06/2014 04:15 MST2.32P  23.1P  0.00P  
09/06/2014 04:30 MST2.33P  23.8P  0.00P  
09/06/2014 04:45 MST2.31P  22.4P  0.00P  
09/06/2014 05:00 MST2.32P  23.1P  0.00P  
09/06/2014 05:15 MST2.33P  23.8P  0.00P  
09/06/2014 05:30 MST2.32P  23.1P  0.00P  
09/06/2014 05:45 MST2.31P  22.4P  0.00P  
09/06/2014 06:00 MST2.32P  23.1P  0.00P  
09/06/2014 06:15 MST2.32P  23.1P  0.00P  
09/06/2014 06:30 MST2.32P  23.1P  0.00P  
09/06/2014 06:45 MST2.30P  21.7P  0.00P  
09/06/2014 07:00 MST2.31P  22.4P  0.00P  
09/06/2014 07:15 MST2.31P  22.4P  0.00P  
09/06/2014 07:30 MST2.32P  23.1P  0.00P  
09/06/2014 07:45 MST2.32P  23.1P  0.00P  
09/06/2014 08:00 MST2.32P  23.1P  0.00P  
09/06/2014 08:15 MST2.31P  22.4P  0.00P  
09/06/2014 08:30 MST2.32P  23.1P  0.00P  
09/06/2014 08:45 MST2.32P  23.1P  0.00P  
09/06/2014 09:00 MST2.31P  22.4P  0.00P  
09/06/2014 09:15 MST2.31P  22.4P  0.00P  
09/06/2014 09:30 MST2.31P  22.4P  0.00P  
09/06/2014 09:45 MST2.31P  22.4P  0.00P  
09/06/2014 10:00 MST2.32P  23.1P  0.00P  
09/06/2014 10:15 MST2.30P  21.7P  0.00P  
09/06/2014 10:30 MST2.32P  23.1P  0.00P  
09/06/2014 10:45 MST2.32P  23.1P  0.00P  
09/06/2014 11:00 MST2.29P  21.1P  0.00P  
09/06/2014 11:15 MST2.30P  21.7P  0.00P  
09/06/2014 11:30 MST2.31P  22.4P  0.00P  
09/06/2014 11:45 MST2.32P  23.1P  0.00P  
09/06/2014 12:00 MST2.30P  21.7P  0.00P  
09/06/2014 12:15 MST2.32P  23.1P  0.17P  
09/06/2014 12:30 MST2.38P  27.5P  0.42P  
09/06/2014 12:45 MST2.39P  28.3P  0.01P  
09/06/2014 13:00 MST2.59P  47.4P  0.01P  
09/06/2014 13:15 MST3.12P  134P  0.00P  
09/06/2014 13:30 MST3.40P  203P  0.01P  
09/06/2014 13:45 MST3.34P  189P  0.01P  
09/06/2014 14:00 MST3.17P  146P  0.00P  
09/06/2014 14:15 MST3.04P  117P  0.00P  
09/06/2014 14:30 MST2.94P  98.0P  0.01P  
09/06/2014 14:45 MST2.85P  82.6P  0.02P  
09/06/2014 15:00 MST2.77P  70.4P  0.01P  
09/06/2014 15:15 MST2.72P  63.4P  0.02P  
09/06/2014 15:30 MST2.67P  56.9P  0.03P  
09/06/2014 15:45 MST2.67P  56.9P  0.02P  
09/06/2014 16:00 MST3.50P  230P  0.01P  
09/06/2014 16:15 MST3.49P  227P  0.01P  
09/06/2014 16:30 MST3.45P  215P  0.02P  
09/06/2014 16:45 MST3.28P  173P  0.00P  
09/06/2014 17:00 MST3.11P  132P  0.00P  
09/06/2014 17:15 MST3.07P  123P  0.00P  
09/06/2014 17:30 MST3.04P  117P  0.00P  
09/06/2014 17:45 MST2.99P  107P  0.00P  
09/06/2014 18:00 MST2.94P  98.0P  0.00P  
09/06/2014 18:15 MST2.96P  102P  0.00P  
09/06/2014 18:30 MST2.94P  98.0P  0.00P  
09/06/2014 18:45 MST2.97P  104P  0.00P  
09/06/2014 19:00 MST2.98P  105P  0.00P  
09/06/2014 19:14 MST2.94P  98.0P  0.00P  
09/06/2014 19:15 MST2.94P  98.0P  0.00P  
09/06/2014 19:29 MST2.87P  85.9P  0.00P  
09/06/2014 19:30 MST2.87P  85.9P  0.00P  
09/06/2014 19:45 MST2.80P  74.8P  0.00P  
09/06/2014 20:00 MST2.75P  67.6P  0.00P  
09/06/2014 20:15 MST2.68P  58.2P  0.00P  
09/06/2014 20:30 MST2.65P  54.4P  0.00P  
09/06/2014 20:45 MST2.60P  48.5P  0.00P  
09/06/2014 21:00 MST2.56P  44.1P  0.00P  
09/06/2014 21:15 MST2.54P  42.0P  0.00P  
09/06/2014 21:30 MST2.50P  38.0P  0.00P  
09/06/2014 21:45 MST2.49P  37.1P  0.00P  
09/06/2014 22:00 MST2.47P  35.2P  0.00P  
09/06/2014 22:15 MST2.45P  33.4P  0.00P  
09/06/2014 22:30 MST2.42P  30.8P  0.00P  
09/06/2014 22:45 MST2.41P  29.9P  0.00P  
09/06/2014 23:00 MST2.37P  26.8P  0.00P  
09/06/2014 23:15 MST2.36P  26.0P  0.00P  
09/06/2014 23:30 MST2.36P  26.0P  0.00P  
09/06/2014 23:45 MST2.36P  26.0P  0.00P  
09/07/2014 00:00 MST2.34P  24.5P  0.00P  
09/07/2014 00:15 MST2.36P  26.0P  0.00P  
09/07/2014 00:30 MST2.35P  25.2P  0.00P  
09/07/2014 00:45 MST2.34P  24.5P  0.00P  
09/07/2014 01:00 MST2.33P  23.8P  0.00P  
09/07/2014 01:15 MST2.32P  23.1P  0.00P  
09/07/2014 01:30 MST2.31P  22.4P  0.00P  
09/07/2014 01:45 MST2.31P  22.4P  0.00P  
09/07/2014 02:00 MST2.31P  22.4P  0.00P  
09/07/2014 02:15 MST2.31P  22.4P  0.00P  
09/07/2014 02:30 MST2.32P  23.1P  0.00P  
09/07/2014 02:45 MST2.32P  23.1P  0.00P  
09/07/2014 03:00 MST2.32P  23.1P  0.01P  
09/07/2014 03:15 MST2.31P  22.4P  0.00P  
09/07/2014 03:30 MST2.31P  22.4P  0.00P  
09/07/2014 03:45 MST2.32P  23.1P  0.00P  
09/07/2014 04:00 MST2.32P  23.1P  0.00P  
09/07/2014 04:15 MST2.30P  21.7P  0.00P  
09/07/2014 04:30 MST2.31P  22.4P  0.00P  
09/07/2014 04:45 MST2.30P  21.7P  0.00P  
09/07/2014 05:00 MST2.30P  21.7P  0.00P  
09/07/2014 05:15 MST2.32P  23.1P  0.00P  
09/07/2014 05:30 MST2.31P  22.4P  0.00P  
09/07/2014 05:45 MST2.31P  22.4P  0.00P  
09/07/2014 06:00 MST2.31P  22.4P  0.00P  
09/07/2014 06:15 MST2.32P  23.1P  0.00P  
09/07/2014 06:30 MST2.31P  22.4P  0.00P  
09/07/2014 06:45 MST2.30P  21.7P  0.00P  
09/07/2014 07:00 MST2.31P  22.4P  0.00P  
09/07/2014 07:15 MST2.31P  22.4P  0.00P  
09/07/2014 07:30 MST2.30P  21.7P  0.00P  
09/07/2014 07:45 MST2.30P  21.7P  0.00P  
09/07/2014 08:00 MST2.29P  21.1P  0.00P  
09/07/2014 08:15 MST2.37P  26.8P  0.00P  
09/07/2014 08:30 MST2.34P  24.5P  0.00P  
09/07/2014 08:45 MST2.29P  21.1P  0.00P  
09/07/2014 09:00 MST2.28P  20.4P  0.00P  
09/07/2014 09:15 MST2.31P  22.4P  0.00P  
09/07/2014 09:30 MST2.28P  20.4P  0.00P  
09/07/2014 09:45 MST2.29P  21.1P  0.00P  
09/07/2014 10:00 MST2.30P  21.7P  0.00P  
09/07/2014 10:15 MST2.30P  21.7P  0.00P  
09/07/2014 10:30 MST2.30P  21.7P  0.00P  
09/07/2014 10:45 MST2.30P  21.7P  0.00P  
09/07/2014 11:00 MST2.31P  22.4P  0.00P  
09/07/2014 11:15 MST3.20P  153P  0.00P  
09/07/2014 11:30 MST3.51P  233P  0.00P  
09/07/2014 11:45 MST3.40P  203P  0.00P  
09/07/2014 12:00 MST3.47P  221P  0.00P  
09/07/2014 12:15 MST3.50P  230P  0.00P  
09/07/2014 12:30 MST3.49P  227P  0.00P  
09/07/2014 12:45 MST3.51P  233P  0.00P  
09/07/2014 13:00 MST3.47P  221P  0.00P  
09/07/2014 13:15 MST3.45P  215P  0.00P  
09/07/2014 13:30 MST3.41P  206P  0.00P  
09/07/2014 13:45 MST3.36P  192P  0.00P  
09/07/2014 14:00 MST3.36P  192P  0.00P  
09/07/2014 14:15 MST3.27P  170P  0.00P  
09/07/2014 14:30 MST3.32P  184P  0.00P  
09/07/2014 14:45 MST3.29P  176P  0.00P  
09/07/2014 15:00 MST3.29P  176P  0.00P  
09/07/2014 15:15 MST3.28P  173P  0.00P  
09/07/2014 15:30 MST3.27P  170P  0.00P  
09/07/2014 15:45 MST3.26P  168P  0.00P  
09/07/2014 16:00 MST3.18P  148P  0.00P  
09/07/2014 16:15 MST3.18P  148P  0.00P  
09/07/2014 16:30 MST3.18P  148P  0.00P  
09/07/2014 16:45 MST3.25P  165P  0.00P  
09/07/2014 17:00 MST3.22P  158P  0.00P  
09/07/2014 17:15 MST3.24P  163P  0.00P  
09/07/2014 17:30 MST3.20P  153P  0.00P  
09/07/2014 17:45 MST3.19P  150P  0.00P  
09/07/2014 18:00 MST3.18P  148P  0.00P  
09/07/2014 18:15 MST3.16P  143P  0.00P  
09/07/2014 18:30 MST3.11P  132P  0.00P  
09/07/2014 18:45 MST3.10P  130P  0.00P  
09/07/2014 19:00 MST3.09P  128P  0.00P  
09/07/2014 19:14 MST3.07P  123P  0.00P  
09/07/2014 19:15 MST3.07P  123P  0.00P  
09/07/2014 19:29 MST3.05P  119P  0.00P  
09/07/2014 19:30 MST3.05P  119P  0.00P  
09/07/2014 19:45 MST3.05P  119P  0.00P  
09/07/2014 20:00 MST3.03P  115P  0.00P  
09/07/2014 20:15 MST3.04P  117P  0.00P  
09/07/2014 20:30 MST3.03P  115P  0.00P  
09/07/2014 20:45 MST3.01P  111P  0.00P  
09/07/2014 21:00 MST2.99P  107P  0.00P  
09/07/2014 21:15 MST2.97P  104P  0.00P  
09/07/2014 21:30 MST2.96P  102P  0.00P  
09/07/2014 21:45 MST2.95P  99.8P  0.00P  
09/07/2014 22:00 MST2.95P  99.8P  0.00P  
09/07/2014 22:15 MST2.94P  98.0P  0.00P  
09/07/2014 22:30 MST2.92P  94.4P  0.00P  
09/07/2014 22:45 MST2.93P  96.2P  0.00P  
09/07/2014 23:00 MST2.90P  91.0P  0.00P  
09/07/2014 23:15 MST2.91P  92.7P  0.00P  
09/07/2014 23:30 MST2.90P  91.0P  0.00P  
09/07/2014 23:45 MST2.90P  91.0P  0.00P  
09/08/2014 00:00 MST2.90P  91.0P  0.00P  
09/08/2014 00:15 MST2.87P  85.9P  0.00P  
09/08/2014 00:30 MST2.85P  82.6P  0.00P  
09/08/2014 00:45 MST2.85P  82.6P  0.00P  
09/08/2014 01:00 MST2.84P  81.0P  0.00P  
09/08/2014 01:15 MST2.82P  77.9P  0.00P  
09/08/2014 01:30 MST2.81P  76.4P  0.00P  
09/08/2014 01:45 MST2.81P  76.4P  0.00P  
09/08/2014 02:00 MST2.81P  76.4P  0.00P  
09/08/2014 02:15 MST2.81P  76.4P  0.00P  
09/08/2014 02:30 MST2.79P  73.4P  0.00P  
09/08/2014 02:45 MST2.78P  71.9P  0.00P  
09/08/2014 03:00 MST2.77P  70.4P  0.00P  
09/08/2014 03:15 MST2.77P  70.4P  0.00P  
09/08/2014 03:30 MST2.75P  67.6P  0.00P  
09/08/2014 03:45 MST2.74P  66.2P  0.00P  
09/08/2014 04:00 MST2.76P  69.0P  0.00P  
09/08/2014 04:15 MST2.75P  67.6P  0.00P  
09/08/2014 04:30 MST2.71P  62.1P  0.00P  
09/08/2014 04:45 MST2.73P  64.8P  0.00P  
09/08/2014 05:00 MST2.70P  60.7P  0.00P  
09/08/2014 05:15 MST2.71P  62.1P  0.00P  
09/08/2014 05:30 MST2.69P  59.4P  0.00P  
09/08/2014 05:45 MST2.68P  58.2P  0.00P  
09/08/2014 06:00 MST2.69P  59.4P  0.01P  
09/08/2014 06:15 MST2.69P  59.4P  0.00P  
09/08/2014 06:30 MST2.66P  55.6P  0.02P  
09/08/2014 06:45 MST2.67P  56.9P  0.00P  
09/08/2014 07:00 MST2.65P  54.4P  0.00P  
09/08/2014 07:15 MST2.66P  55.6P  0.00P  
09/08/2014 07:30 MST2.65P  54.4P  0.00P  
09/08/2014 07:45 MST2.64P  53.2P  0.00P  
09/08/2014 08:00 MST2.64P  53.2P  0.00P  
09/08/2014 08:15 MST2.65P  54.4P  0.05P  
09/08/2014 08:30 MST2.65P  54.4P  0.01P  
09/08/2014 08:45 MST2.63P  52.0P  0.00P  
09/08/2014 09:00 MST2.62P  50.8P  0.00P  
09/08/2014 09:15 MST2.61P  49.7P  0.00P  
09/08/2014 09:30 MST2.62P  50.8P  0.00P  
09/08/2014 09:45 MST2.63P  52.0P  0.00P  
09/08/2014 10:00 MST2.62P  50.8P  0.00P  
09/08/2014 10:15 MST2.61P  49.7P  0.00P  
09/08/2014 10:30 MST2.61P  49.7P  0.00P  
09/08/2014 10:45 MST2.61P  49.7P  0.00P  
09/08/2014 11:00 MST2.62P  50.8P  0.00P  
09/08/2014 11:15 MST2.67P  56.9P  0.00P  
09/08/2014 11:30 MST2.80P  74.8P  0.00P  
09/08/2014 11:45 MST2.92P  94.4P  0.00P  
09/08/2014 12:00 MST2.98P  105P  0.00P  
09/08/2014 12:15 MST2.99P  107P  0.00P  
09/08/2014 12:30 MST2.99P  107P  0.00P  
09/08/2014 12:45 MST2.98P  105P  0.00P  
09/08/2014 13:00 MST2.96P  102P  0.00P  
09/08/2014 13:15 MST2.92P  94.4P  0.00P  
09/08/2014 13:30 MST2.91P  92.7P  0.27P  
09/08/2014 13:44 MST3.03P  115P  0.76P  
09/08/2014 13:45 MST3.03P  115P  0.00P  
09/08/2014 13:59 MST4.29P  499P  0.31P  
09/08/2014 14:00 MST4.29P  499P  0.00P  
09/08/2014 14:14 MST5.67P  1,340P  0.07P  
09/08/2014 14:15 MST5.67P  1,340P  0.00P  
09/08/2014 14:29 MST7.10P  2,960P  0.06P  
09/08/2014 14:30 MST7.10P  2,960P  0.00P  
09/08/2014 14:44 MST7.10P  2,960P  0.00P  
09/08/2014 14:45 MST7.75P  3,980P  0.03P  
09/08/2014 14:59 MST7.75P  3,980P  0.00P  
09/08/2014 15:00 MST7.61P  3,750P  0.03P  
09/08/2014 15:14 MST7.78P  4,030P  0.08P  
09/08/2014 15:15 MST7.78P  4,030P  0.00P  
09/08/2014 15:29 MST8.26P  4,930P  0.08P  
09/08/2014 15:30 MST8.26P  4,930P  0.00P  
09/08/2014 15:44 MST8.35P  5,110P  0.10P  
09/08/2014 15:45 MST8.35P  5,110P  0.00P  
09/08/2014 15:59 MST8.21P  4,830P  0.02P  
09/08/2014 16:00 MST8.21P  4,830P  0.00P  
09/08/2014 16:14 MST8.10P  4,620P  0.01P  
09/08/2014 16:15 MST8.10P  4,620P  0.00P  
09/08/2014 16:29 MST7.91P  4,260P  0.00P  
09/08/2014 16:30 MST7.91P  4,260P  0.00P  
09/08/2014 16:44 MST7.49P  3,560P  0.00P  
09/08/2014 16:45 MST7.49P  3,560P  0.00P  
09/08/2014 16:59 MST6.85P  2,610P  0.00P  
09/08/2014 17:00 MST6.85P  2,610P  0.00P  
09/08/2014 17:14 MST6.44P  2,110P  0.00P  
09/08/2014 17:15 MST6.44P  2,110P  0.00P  
09/08/2014 17:29 MST6.16P  1,790P  0.00P  
09/08/2014 17:30 MST6.16P  1,790P  0.00P  
09/08/2014 17:44 MST5.89P  1,530P  0.00P  
09/08/2014 17:45 MST5.89P  1,530P  0.00P  
09/08/2014 17:59 MST5.53P  1,240P  0.00P  
09/08/2014 18:00 MST5.53P  1,240P  0.00P  
09/08/2014 18:14 MST5.41P  1,150P  0.00P  
09/08/2014 18:15 MST5.41P  1,150P  0.00P  
09/08/2014 18:29 MST5.24P  1,030P  0.00P  
09/08/2014 18:30 MST5.24P  1,030P  0.00P  
09/08/2014 18:44 MST5.04P  899P  0.00P  
09/08/2014 18:45 MST5.04P  899P  0.00P  
09/08/2014 18:59 MST4.83P  770P  0.00P  
09/08/2014 19:00 MST4.83P  770P  0.00P  
09/08/2014 19:14 MST4.74P  720P  0.00P  
09/08/2014 19:15 MST4.74P  720P  0.00P  
09/08/2014 19:29 MST4.58P  636P  0.00P  
09/08/2014 19:30 MST4.58P  636P  0.00P  
09/08/2014 19:44 MST4.45P  570P  0.00P  
09/08/2014 19:45 MST4.45P  570P  0.00P  
09/08/2014 19:59 MST4.29P  499P  0.00P  
09/08/2014 20:00 MST4.29P  499P  0.00P  
09/08/2014 20:14 MST4.15P  442P  0.00P  
09/08/2014 20:15 MST4.15P  442P  0.00P  
09/08/2014 20:30 MST3.97P  374P  0.00P  
09/08/2014 20:45 MST3.83P  327P  0.00P  
09/08/2014 21:00 MST3.71P  287P  0.00P  
09/08/2014 21:15 MST3.60P  254P  0.00P  
09/08/2014 21:30 MST3.48P  224P  0.00P  
09/08/2014 21:45 MST3.36P  192P  0.00P  
09/08/2014 22:00 MST3.32P  184P  0.00P  
09/08/2014 22:15 MST3.29P  176P  0.00P  
09/08/2014 22:30 MST3.24P  163P  0.00P  
09/08/2014 22:45 MST3.22P  158P  0.00P  
09/08/2014 23:00 MST3.17P  146P  0.00P  
09/08/2014 23:15 MST3.11P  132P  0.00P  
09/08/2014 23:30 MST3.10P  130P  0.00P  
09/08/2014 23:45 MST3.07P  123P  0.00P  
09/09/2014 00:00 MST3.04P  117P  0.00P  
09/09/2014 00:15 MST3.01P  111P  0.00P  
09/09/2014 00:30 MST2.99P  107P  0.00P  
09/09/2014 00:45 MST2.95P  99.8P  0.00P  
09/09/2014 01:00 MST2.93P  96.2P  0.00P  
09/09/2014 01:15 MST2.90P  91.0P  0.00P  
09/09/2014 01:30 MST2.85P  82.6P  0.00P  
09/09/2014 01:45 MST2.84P  81.0P  0.00P  
09/09/2014 02:00 MST2.81P  76.4P  0.00P  
09/09/2014 02:15 MST2.79P  73.4P  0.00P  
09/09/2014 02:30 MST2.76P  69.0P  0.00P  
09/09/2014 02:45 MST2.73P  64.8P  0.00P  
09/09/2014 03:00 MST2.72P  63.4P  0.00P  
09/09/2014 03:15 MST2.69P  59.4P  0.00P  
09/09/2014 03:30 MST2.66P  55.6P  0.00P  
09/09/2014 03:45 MST2.64P  53.2P  0.00P  
09/09/2014 04:00 MST2.63P  52.0P  0.00P  
09/09/2014 04:15 MST2.60P  48.5P  0.00P  
09/09/2014 04:30 MST2.59P  47.4P  0.00P  
09/09/2014 04:45 MST2.58P  46.3P  0.00P  
09/09/2014 05:00 MST2.56P  44.1P  0.00P  
09/09/2014 05:15 MST2.56P  44.1P  0.00P  
09/09/2014 05:30 MST2.55P  43.1P  0.01P  
09/09/2014 05:45 MST2.54P  42.0P  0.00P  
09/09/2014 06:00 MST2.53P  41.0P  0.00P  
09/09/2014 06:15 MST2.52P  40.0P  0.00P  
09/09/2014 06:30 MST2.51P  39.0P  0.00P  
09/09/2014 06:45 MST2.51P  39.0P  0.00P  
09/09/2014 07:00 MST2.50P  38.0P  0.00P  
09/09/2014 07:15 MST2.51P  39.0P  0.00P  
09/09/2014 07:30 MST2.52P  40.0P  0.00P  
09/09/2014 07:45 MST2.53P  41.0P  0.00P  
09/09/2014 08:00 MST2.54P  42.0P  0.00P  
09/09/2014 08:15 MST2.55P  43.1P  0.00P  
09/09/2014 08:30 MST2.55P  43.1P  0.00P  
09/09/2014 08:45 MST2.56P  44.1P  0.00P  
09/09/2014 09:00 MST2.56P  44.1P  0.00P  
09/09/2014 09:15 MST2.57P  45.2P  0.00P  
09/09/2014 09:30 MST2.56P  44.1P  0.00P  
09/09/2014 09:45 MST2.56P  44.1P  0.00P  
09/09/2014 10:00 MST2.56P  44.1P  0.00P  
09/09/2014 10:15 MST2.55P  43.1P  0.00P  
09/09/2014 10:30 MST2.55P  43.1P  0.00P  
09/09/2014 10:45 MST2.54P  42.0P  0.00P  
09/09/2014 11:00 MST2.53P  41.0P  0.00P  
09/09/2014 11:15 MST2.53P  41.0P  0.00P  
09/09/2014 11:30 MST2.52P  40.0P  0.00P  
09/09/2014 11:45 MST2.51P  39.0P  0.00P  
09/09/2014 12:00 MST2.51P  39.0P  0.00P  
09/09/2014 12:15 MST2.51P  39.0P  0.00P  
09/09/2014 12:30 MST2.50P  38.0P  0.00P  
09/09/2014 12:45 MST2.49P  37.1P  0.00P  
09/09/2014 13:00 MST2.49P  37.1P  0.00P  
09/09/2014 13:15 MST2.48P  36.1P  0.00P  
09/09/2014 13:30 MST2.48P  36.1P  0.00P  
09/09/2014 13:45 MST2.47P  35.2P  0.00P  
09/09/2014 14:00 MST2.48P  36.1P  0.00P  
09/09/2014 14:15 MST2.49P  37.1P  0.00P  
09/09/2014 14:30 MST2.51P  39.0P  0.00P  
09/09/2014 14:45 MST2.55P  43.1P  0.00P  
09/09/2014 15:00 MST2.60P  48.5P  0.00P  
09/09/2014 15:15 MST2.63P  52.0P  0.00P  
09/09/2014 15:30 MST2.66P  55.6P  0.00P  
09/09/2014 15:45 MST2.67P  56.9P  0.00P  
09/09/2014 16:00 MST2.68P  58.2P  0.00P  
09/09/2014 16:15 MST2.69P  59.4P  0.00P  
09/09/2014 16:30 MST2.68P  58.2P  0.00P  
09/09/2014 16:45 MST2.68P  58.2P  0.00P  
09/09/2014 17:00 MST2.67P  56.9P  0.00P  
09/09/2014 17:15 MST2.67P  56.9P  0.00P  
09/09/2014 17:30 MST2.67P  56.9P  0.00P  
09/09/2014 17:45 MST2.66P  55.6P  0.00P  
09/09/2014 18:00 MST2.65P  54.4P  0.00P  
09/09/2014 18:15 MST2.64P  53.2P  0.00P  
09/09/2014 18:30 MST2.64P  53.2P  0.00P  
09/09/2014 18:45 MST2.64P  53.2P  0.00P  
09/09/2014 19:00 MST2.63P  52.0P  0.00P  
09/09/2014 19:15 MST2.62P  50.8P  0.00P  
09/09/2014 19:30 MST2.62P  50.8P  0.00P  
09/09/2014 19:45 MST2.61P  49.7P  0.00P  
09/09/2014 19:59 MST2.61P  49.7P  0.00P  
09/09/2014 20:00 MST2.61P  49.7P  0.00P  
09/09/2014 20:14 MST2.60P  48.5P  0.00P  
09/09/2014 20:15 MST2.60P  48.5P  0.00P  
09/09/2014 20:30 MST2.59P  47.4P  0.00P  
09/09/2014 20:45 MST2.59P  47.4P  0.00P  
09/09/2014 21:00 MST2.58P  46.3P  0.00P  
09/09/2014 21:15 MST2.58P  46.3P  0.00P  
09/09/2014 21:30 MST2.57P  45.2P  0.00P  
09/09/2014 21:45 MST2.56P  44.1P  0.00P  
09/09/2014 22:00 MST2.56P  44.1P  0.00P  
09/09/2014 22:15 MST2.55P  43.1P  0.00P  
09/09/2014 22:30 MST2.54P  42.0P  0.00P  
09/09/2014 22:45 MST2.54P  42.0P  0.00P  
09/09/2014 23:00 MST2.54P  42.0P  0.00P  
09/09/2014 23:15 MST2.53P  41.0P  0.00P  
09/09/2014 23:30 MST2.53P  41.0P  0.00P  
09/09/2014 23:45 MST2.52P  40.0P  0.00P  
09/10/2014 00:00 MST2.51P  39.0P  0.00P  
09/10/2014 00:15 MST2.51P  39.0P  0.00P  
09/10/2014 00:30 MST2.51P  39.0P  0.00P  
09/10/2014 00:45 MST2.50P  38.0P  0.00P  
09/10/2014 01:00 MST2.50P  38.0P  0.00P  
09/10/2014 01:15 MST2.49P  37.1P  0.00P  
09/10/2014 01:30 MST2.49P  37.1P  0.00P  
09/10/2014 01:45 MST2.48P  36.1P  0.00P  
09/10/2014 02:00 MST2.48P  36.1P  0.00P  
09/10/2014 02:15 MST2.47P  35.2P  0.00P  
09/10/2014 02:30 MST2.47P  35.2P  0.00P  
09/10/2014 02:45 MST2.46P  34.3P  0.00P  
09/10/2014 03:00 MST2.46P  34.3P  0.00P  
09/10/2014 03:15 MST2.46P  34.3P  0.00P  
09/10/2014 03:30 MST2.46P  34.3P  0.00P  
09/10/2014 03:45 MST2.46P  34.3P  0.00P  
09/10/2014 04:00 MST2.45P  33.4P  0.00P  
09/10/2014 04:15 MST2.45P  33.4P  0.00P  
09/10/2014 04:30 MST2.44P  32.5P  0.00P  
09/10/2014 04:45 MST2.44P  32.5P  0.00P  
09/10/2014 05:00 MST2.44P  32.5P  0.00P  
09/10/2014 05:15 MST2.43P  31.6P  0.00P  
09/10/2014 05:30 MST2.43P  31.6P  0.00P  
09/10/2014 05:45 MST2.42P  30.8P  0.00P  
09/10/2014 06:00 MST2.43P  31.6P  0.00P  
09/10/2014 06:15 MST2.42P  30.8P  0.00P  
09/10/2014 06:30 MST2.42P  30.8P  0.00P  
09/10/2014 06:45 MST2.41P  29.9P  0.00P  
09/10/2014 07:00 MST2.41P  29.9P  0.00P  
09/10/2014 07:15 MST2.41P  29.9P  0.00P  
09/10/2014 07:30 MST2.41P  29.9P  0.00P  
09/10/2014 07:45 MST2.40P  29.1P  0.00P  
09/10/2014 08:00 MST2.40P  29.1P  0.00P  
09/10/2014 08:15 MST2.40P  29.1P  0.00P  
09/10/2014 08:30 MST2.40P  29.1P  0.00P  
09/10/2014 08:45 MST2.39P  28.3P  0.00P  
09/10/2014 09:00 MST2.39P  28.3P  0.00P  
09/10/2014 09:15 MST2.39P  28.3P  0.00P  
09/10/2014 09:30 MST2.39P  28.3P  0.00P  
09/10/2014 09:45 MST2.39P  28.3P  0.00P  
09/10/2014 10:00 MST2.38P  27.5P  0.00P  
09/10/2014 10:15 MST2.38P  27.5P  0.00P  
09/10/2014 10:30 MST2.38P  27.5P  0.00P  
09/10/2014 10:45 MST2.37P  26.8P  0.00P  
09/10/2014 11:00 MST2.37P  26.8P  0.00P  
09/10/2014 11:15 MST2.37P  26.8P  0.00P  
09/10/2014 11:30 MST2.36P  26.0P  0.00P  
09/10/2014 11:45 MST2.36P  26.0P  0.00P  
09/10/2014 12:00 MST2.36P  26.0P  0.00P  
09/10/2014 12:15 MST2.36P  26.0P  0.00P  
09/10/2014 12:30 MST2.36P  26.0P  0.00P  
09/10/2014 12:45 MST2.35P  25.2P  0.00P  
09/10/2014 13:00 MST2.35P  25.2P  0.00P  
09/10/2014 13:15 MST2.35P  25.2P  0.00P  
09/10/2014 13:30 MST2.35P  25.2P  0.00P  
09/10/2014 13:45 MST2.34P  24.5P  0.00P  
09/10/2014 14:00 MST2.34P  24.5P  0.00P  
09/10/2014 14:15 MST2.34P  24.5P  0.00P  
09/10/2014 14:30 MST2.34P  24.5P  0.00P  
09/10/2014 14:45 MST2.33P  23.8P  0.00P  
09/10/2014 15:00 MST2.33P  23.8P  0.00P  
09/10/2014 15:15 MST2.33P  23.8P  0.00P  
09/10/2014 15:30 MST2.33P  23.8P  0.00P  
09/10/2014 15:45 MST2.33P  23.8P  0.00P  
09/10/2014 16:00 MST2.33P  23.8P  0.00P  
09/10/2014 16:15 MST2.32P  23.1P  0.00P  
09/10/2014 16:30 MST2.32P  23.1P  0.00P  
09/10/2014 16:45 MST2.32P  23.1P  0.00P  
09/10/2014 17:00 MST2.32P  23.1P  0.00P  
09/10/2014 17:15 MST2.32P  23.1P  0.00P  
09/10/2014 17:30 MST2.31P  22.4P  0.00P  
09/10/2014 17:45 MST2.31P  22.4P  0.00P  
09/10/2014 18:00 MST2.31P  22.4P  0.00P  
09/10/2014 18:15 MST2.31P  22.4P  0.00P  
09/10/2014 18:30 MST2.31P  22.4P  0.00P  
09/10/2014 18:45 MST2.30P  21.7P  0.00P  
09/10/2014 19:00 MST2.30P  21.7P  0.00P  
09/10/2014 19:15 MST2.30P  21.7P  0.00P  
09/10/2014 19:30 MST2.30P  21.7P  0.00P  
09/10/2014 19:45 MST2.30P  21.7P  0.00P  
09/10/2014 19:59 MST2.30P  21.7P  0.00P  
09/10/2014 20:00 MST2.30P  21.7P  0.00P  
09/10/2014 20:14 MST2.30P  21.7P  0.00P  
09/10/2014 20:15 MST2.30P  21.7P  0.00P  
09/10/2014 20:30 MST2.30P  21.7P  0.00P  
09/10/2014 20:45 MST2.30P  21.7P  0.00P  
09/10/2014 21:00 MST2.29P  21.1P  0.00P  
09/10/2014 21:15 MST2.29P  21.1P  0.00P  
09/10/2014 21:30 MST2.29P  21.1P  0.00P  
09/10/2014 21:45 MST2.29P  21.1P  0.00P  
09/10/2014 22:00 MST2.29P  21.1P  0.00P  
09/10/2014 22:15 MST2.29P  21.1P  0.00P  
09/10/2014 22:30 MST2.29P  21.1P  0.00P  
09/10/2014 22:45 MST2.29P  21.1P  0.00P  
09/10/2014 23:00 MST2.28P  20.4P  0.00P  
09/10/2014 23:15 MST2.28P  20.4P  0.00P  
09/10/2014 23:30 MST2.28P  20.4P  0.00P  
09/10/2014 23:45 MST2.28P  20.4P  0.00P  
09/11/2014 00:00 MST2.28P  20.4P  0.00P  
09/11/2014 00:15 MST2.28P  20.4P  0.00P  
09/11/2014 00:30 MST2.28P  20.4P  0.00P  
09/11/2014 00:45 MST2.28P  20.4P  0.00P  
09/11/2014 01:00 MST2.28P  20.4P  0.00P  
09/11/2014 01:15 MST2.28P  20.4P  0.00P  
09/11/2014 01:30 MST2.27P  19.8P  0.00P  
09/11/2014 01:45 MST2.27P  19.8P  0.00P  
09/11/2014 02:00 MST2.27P  19.8P  0.00P  
09/11/2014 02:15 MST2.27P  19.8P  0.00P  
09/11/2014 02:30 MST2.27P  19.8P  0.00P  
09/11/2014 02:45 MST2.27P  19.8P  0.00P  
09/11/2014 03:00 MST2.27P  19.8P  0.00P  
09/11/2014 03:15 MST2.27P  19.8P  0.00P  
09/11/2014 03:30 MST2.27P  19.8P  0.00P  
09/11/2014 03:45 MST2.27P  19.8P  0.00P  
09/11/2014 04:00 MST2.26P  19.2P  0.00P  
09/11/2014 04:15 MST2.26P  19.2P  0.00P  
09/11/2014 04:30 MST2.26P  19.2P  0.00P  
09/11/2014 04:45 MST2.26P  19.2P  0.00P  
09/11/2014 05:00 MST2.26P  19.2P  0.00P  
09/11/2014 05:15 MST2.26P  19.2P  0.00P  
09/11/2014 05:30 MST2.26P  19.2P  0.00P  
09/11/2014 05:45 MST2.26P  19.2P  0.00P  
09/11/2014 06:00 MST2.26P  19.2P  0.00P  
09/11/2014 06:15 MST2.26P  19.2P  0.00P  
09/11/2014 06:30 MST2.26P  19.2P  0.00P  
09/11/2014 06:45 MST2.26P  19.2P  0.00P  
09/11/2014 07:00 MST2.26P  19.2P  0.00P  
09/11/2014 07:15 MST2.26P  19.2P  0.00P  
09/11/2014 07:30 MST2.25P  18.6P  0.00P  
09/11/2014 07:45 MST2.26P  19.2P  0.00P  
09/11/2014 08:00 MST2.25P  18.6P  0.00P  
09/11/2014 08:15 MST2.25P  18.6P  0.00P  
09/11/2014 08:30 MST2.25P  18.6P  0.00P  
09/11/2014 08:45 MST2.25P  18.6P  0.00P  
09/11/2014 09:00 MST2.25P  18.6P  0.00P  
09/11/2014 09:15 MST2.25P  18.6P  0.00P  
09/11/2014 09:30 MST2.25P  18.6P  0.00P  
09/11/2014 09:45 MST2.25P  18.6P  0.00P  
09/11/2014 10:00 MST2.25P  18.6P  0.00P  
09/11/2014 10:15 MST2.25P  18.6P  0.00P  
09/11/2014 10:30 MST2.25P  18.6P  0.00P  
09/11/2014 10:45 MST2.25P  18.6P  0.00P  
09/11/2014 11:00 MST2.24P  17.9P  0.00P  
09/11/2014 11:15 MST2.24P  17.9P  0.00P  
09/11/2014 11:30 MST2.24P  17.9P  0.00P  
09/11/2014 11:45 MST2.24P  17.9P  0.00P  
09/11/2014 12:00 MST2.24P  17.9P  0.00P  
09/11/2014 12:15 MST2.24P  17.9P  0.00P  
09/11/2014 12:30 MST2.24P  17.9P  0.00P  
09/11/2014 12:45 MST2.24P  17.9P  0.00P  
09/11/2014 13:00 MST2.24P  17.9P  0.00P  
09/11/2014 13:15 MST2.23P  17.3P  0.00P  
09/11/2014 13:30 MST2.23P  17.3P  0.00P  
09/11/2014 13:45 MST2.23P  17.3P  0.00P  
09/11/2014 14:00 MST2.23P  17.3P  0.00P  
09/11/2014 14:15 MST2.23P  17.3P  0.00P  
09/11/2014 14:30 MST2.23P  17.3P  0.00P  
09/11/2014 14:45 MST2.23P  17.3P  0.00P  
09/11/2014 15:00 MST2.22P  16.6P  0.00P  
09/11/2014 15:15 MST2.22P  16.6P  0.00P  
09/11/2014 15:30 MST2.22P  16.6P  0.00P  
09/11/2014 15:45 MST2.22P  16.6P  0.00P  
09/11/2014 16:00 MST2.22P  16.6P  0.00P  
09/11/2014 16:15 MST2.22P  16.6P  0.00P  
09/11/2014 16:30 MST2.22P  16.6P  0.00P  
09/11/2014 16:45 MST2.22P  16.6P  0.00P  
09/11/2014 17:00 MST2.22P  16.6P  0.00P  
09/11/2014 17:15 MST2.22P  16.6P  0.00P  
09/11/2014 17:30 MST2.22P  16.6P  0.00P  
09/11/2014 17:45 MST2.22P  16.6P  0.00P  
09/11/2014 18:00 MST2.21P  16.0P  0.00P  
09/11/2014 18:15 MST2.21P  16.0P  0.00P  
09/11/2014 18:30 MST2.21P  16.0P  0.00P  
09/11/2014 18:45 MST2.21P  16.0P  0.00P  
09/11/2014 19:00 MST2.21P  16.0P  0.00P  
09/11/2014 19:15 MST2.21P  16.0P  0.00P  
09/11/2014 19:30 MST2.21P  16.0P  0.00P  
09/11/2014 19:45 MST2.21P  16.0P  0.00P  
09/11/2014 19:59 MST2.21P  16.0P  0.00P  
09/11/2014 20:00 MST2.21P  16.0P  0.00P  
09/11/2014 20:14 MST2.21P  16.0P  0.00P  
09/11/2014 20:15 MST2.21P  16.0P  0.00P  
09/11/2014 20:30 MST2.21P  16.0P  0.00P  
09/11/2014 20:45 MST2.21P  16.0P  0.00P  
09/11/2014 21:00 MST2.21P  16.0P  0.00P  
09/11/2014 21:15 MST2.21P  16.0P  0.00P  
09/11/2014 21:30 MST2.21P  16.0P  0.00P  
09/11/2014 21:45 MST2.21P  16.0P  0.00P  
09/11/2014 22:00 MST2.21P  16.0P  0.00P  
09/11/2014 22:15 MST2.20P  15.4P  0.00P  
09/11/2014 22:30 MST2.21P  16.0P  0.00P  
09/11/2014 22:45 MST2.21P  16.0P  0.00P  
09/11/2014 23:00 MST2.21P  16.0P  0.00P  
09/11/2014 23:15 MST2.21P  16.0P  0.00P  
09/11/2014 23:30 MST2.21P  16.0P  0.00P  
09/11/2014 23:45 MST2.21P  16.0P  0.00P  
09/12/2014 00:00 MST2.21P  16.0P  0.00P  
09/12/2014 00:15 MST2.21P  16.0P  0.00P  
09/12/2014 00:30 MST2.21P  16.0P  0.00P  
09/12/2014 00:45 MST2.20P  15.4P  0.00P  
09/12/2014 01:00 MST2.21P  16.0P  0.00P  
09/12/2014 01:15 MST2.20P  15.4P  0.00P  
09/12/2014 01:30 MST2.20P  15.4P  0.00P  
09/12/2014 01:45 MST2.20P  15.4P  0.00P  
09/12/2014 02:00 MST2.20P  15.4P  0.00P  
09/12/2014 02:15 MST2.20P  15.4P  0.00P  
09/12/2014 02:30 MST2.20P  15.4P  0.00P  
09/12/2014 02:45 MST2.21P  16.0P  0.00P  
09/12/2014 03:00 MST2.20P  15.4P  0.00P  
09/12/2014 03:15 MST2.20P  15.4P  0.00P  
09/12/2014 03:30 MST2.20P  15.4P  0.00P  
09/12/2014 03:45 MST2.21P  16.0P  0.00P  
09/12/2014 04:00 MST2.20P  15.4P  0.00P  
09/12/2014 04:15 MST2.20P  15.4P  0.00P  
09/12/2014 04:30 MST2.20P  15.4P  0.00P  
09/12/2014 04:45 MST2.20P  15.4P  0.00P  
09/12/2014 05:00 MST2.20P  15.4P  0.00P  
09/12/2014 05:15 MST2.20P  15.4P  0.00P  
09/12/2014 05:30 MST2.20P  15.4P  0.00P  
09/12/2014 05:45 MST2.20P  15.4P  0.00P  
09/12/2014 06:00 MST2.20P  15.4P  0.00P  
09/12/2014 06:15 MST2.20P  15.4P  0.00P  
09/12/2014 06:30 MST2.20P  15.4P  0.00P  
09/12/2014 06:45 MST2.20P  15.4P  0.00P  
09/12/2014 07:00 MST2.20P  15.4P  0.00P  
09/12/2014 07:15 MST2.20P  15.4P  0.00P  
09/12/2014 07:30 MST2.20P  15.4P  0.00P  
09/12/2014 07:45 MST2.20P  15.4P  0.00P  
09/12/2014 08:00 MST2.20P  15.4P  0.00P  
09/12/2014 08:15 MST2.20P  15.4P  0.00P  
09/12/2014 08:30 MST2.20P  15.4P  0.00P  
09/12/2014 08:45 MST2.20P  15.4P  0.00P  
09/12/2014 09:00 MST2.20P  15.4P  0.00P  
09/12/2014 09:15 MST2.20P  15.4P  0.00P  
09/12/2014 09:30 MST2.20P  15.4P  0.00P  
09/12/2014 09:45 MST2.20P  15.4P  0.00P  
09/12/2014 10:00 MST2.20P  15.4P  0.00P  
09/12/2014 10:15 MST2.20P  15.4P  0.00P  
09/12/2014 10:30 MST2.20P  15.4P  0.00P  
09/12/2014 10:45 MST2.20P  15.4P  0.00P  
09/12/2014 11:00 MST2.20P  15.4P  0.00P  
09/12/2014 11:15 MST2.19P  14.8P  0.00P  
09/12/2014 11:30 MST2.19P  14.8P  0.00P  
09/12/2014 11:45 MST2.19P  14.8P  0.00P  
09/12/2014 12:00 MST2.19P  14.8P  0.00P  
09/12/2014 12:15 MST2.19P  14.8P  0.00P  
09/12/2014 12:30 MST2.19P  14.8P  0.00P  
09/12/2014 12:45 MST2.19P  14.8P  0.00P  
09/12/2014 13:00 MST2.19P  14.8P  0.00P  
09/12/2014 13:15 MST2.19P  14.8P  0.00P  
09/12/2014 13:30 MST2.19P  14.8P  0.00P  
09/12/2014 13:45 MST2.19P  14.8P  0.00P  
09/12/2014 14:00 MST2.18P  14.3P  0.00P  
09/12/2014 14:15 MST2.19P  14.8P  0.00P  
09/12/2014 14:30 MST2.18P  14.3P  0.00P  
09/12/2014 14:45 MST2.18P  14.3P  0.00P  
09/12/2014 15:00 MST2.18P  14.3P  0.00P  
09/12/2014 15:15 MST2.18P  14.3P  0.00P  
09/12/2014 15:30 MST2.18P  14.3P  0.00P  
09/12/2014 15:45 MST2.18P  14.3P  0.00P  
09/12/2014 16:00 MST2.18P  14.3P  0.00P  
09/12/2014 16:15 MST2.18P  14.3P  0.00P  
09/12/2014 16:30 MST2.18P  14.3P  0.00P  
09/12/2014 16:45 MST2.18P  14.3P  0.00P  
09/12/2014 17:00 MST2.18P  14.3P  0.00P  
09/12/2014 17:15 MST2.18P  14.3P  0.00P  
09/12/2014 17:30 MST2.18P  14.3P  0.00P  
09/12/2014 17:45 MST2.18P  14.3P  0.00P  
09/12/2014 18:00 MST2.18P  14.3P  0.00P  
09/12/2014 18:15 MST2.18P  14.3P  0.00P  
09/12/2014 18:30 MST2.18P  14.3P  0.00P  
09/12/2014 18:45 MST2.17P  13.7P  0.00P  
09/12/2014 19:00 MST2.17P  13.7P  0.00P  
09/12/2014 19:15 MST2.17P  13.7P  0.00P  
09/12/2014 19:30 MST2.17P  13.7P  0.00P  
09/12/2014 19:45 MST2.17P  13.7P  0.00P  
09/12/2014 20:00 MST2.17P  13.7P  0.00P  
09/12/2014 20:14 MST2.17P  13.7P  0.00P  
09/12/2014 20:15 MST2.17P  13.7P  0.00P  
09/12/2014 20:29 MST2.17P  13.7P  0.00P  
09/12/2014 20:30 MST2.17P  13.7P  0.00P  
09/12/2014 20:45 MST2.18P  14.3P  0.00P  
09/12/2014 21:00 MST2.17P  13.7P  0.00P  
09/12/2014 21:15 MST2.17P  13.7P  0.00P  
09/12/2014 21:30 MST2.17P  13.7P  0.00P  
09/12/2014 21:45 MST2.17P  13.7P  0.00P  
09/12/2014 22:00 MST2.17P  13.7P  0.00P  
09/12/2014 22:15 MST2.17P  13.7P  0.00P  
09/12/2014 22:30 MST2.17P  13.7P  0.00P  
09/12/2014 22:45 MST2.17P  13.7P  0.00P  
09/12/2014 23:00 MST2.17P  13.7P  0.00P  
09/12/2014 23:15 MST2.17P  13.7P  0.00P  
09/12/2014 23:30 MST2.17P  13.7P  0.00P  
09/12/2014 23:45 MST2.17P  13.7P  0.00P  
09/13/2014 00:00 MST2.17P  13.7P  0.00P  
09/13/2014 00:15 MST2.17P  13.7P  0.00P  
09/13/2014 00:30 MST2.17P  13.7P  0.00P  
09/13/2014 00:45 MST2.17P  13.7P  0.00P  
09/13/2014 01:00 MST2.17P  13.7P  0.00P  
09/13/2014 01:15 MST2.17P  13.7P  0.00P  
09/13/2014 01:30 MST2.17P  13.7P  0.00P  
09/13/2014 01:45 MST2.17P  13.7P  0.00P  
09/13/2014 02:00 MST2.17P  13.7P  0.00P  
09/13/2014 02:15 MST2.17P  13.7P  0.00P  
09/13/2014 02:30 MST2.17P  13.7P  0.00P  
09/13/2014 02:45 MST2.17P  13.7P  0.00P  
09/13/2014 03:00 MST2.17P  13.7P  0.00P  
09/13/2014 03:15 MST2.17P  13.7P  0.00P  
09/13/2014 03:30 MST2.17P  13.7P  0.00P  
09/13/2014 03:45 MST2.17P  13.7P  0.00P  
09/13/2014 04:00 MST2.17P  13.7P  0.00P  
09/13/2014 04:15 MST2.17P  13.7P  0.00P  
09/13/2014 04:30 MST2.17P  13.7P  0.00P  
09/13/2014 04:45 MST2.17P  13.7P  0.00P  
09/13/2014 05:00 MST2.17P  13.7P  0.00P  
09/13/2014 05:15 MST2.17P  13.7P  0.00P  
09/13/2014 05:30 MST2.17P  13.7P  0.00P  
09/13/2014 05:45 MST2.17P  13.7P  0.00P  
09/13/2014 06:00 MST2.17P  13.7P  0.00P  
09/13/2014 06:15 MST2.17P  13.7P  0.00P  
09/13/2014 06:30 MST2.17P  13.7P  0.00P  
09/13/2014 06:45 MST2.17P  13.7P  0.00P  
09/13/2014 07:00 MST2.17P  13.7P  0.00P  
09/13/2014 07:15 MST2.17P  13.7P  0.00P  
09/13/2014 07:30 MST2.17P  13.7P  0.00P  
09/13/2014 07:45 MST2.17P  13.7P  0.00P  
09/13/2014 08:00 MST2.17P  13.7P  0.00P  
09/13/2014 08:15 MST2.17P  13.7P  0.00P  
09/13/2014 08:30 MST2.17P  13.7P  0.00P  
09/13/2014 08:45 MST2.17P  13.7P  0.00P  
09/13/2014 09:00 MST2.17P  13.7P  0.00P  
09/13/2014 09:15 MST2.17P  13.7P  0.00P  
09/13/2014 09:30 MST2.17P  13.7P  0.00P  
09/13/2014 09:45 MST2.17P  13.7P  0.00P  
09/13/2014 10:00 MST2.17P  13.7P  0.00P  
09/13/2014 10:15 MST2.17P  13.7P  0.00P  
09/13/2014 10:30 MST2.17P  13.7P  0.00P  
09/13/2014 10:45 MST2.17P  13.7P  0.00P  
09/13/2014 11:00 MST2.17P  13.7P  0.00P  
09/13/2014 11:15 MST2.17P  13.7P  0.00P  
09/13/2014 11:30 MST2.17P  13.7P  0.00P  
09/13/2014 11:45 MST2.17P  13.7P  0.00P  
09/13/2014 12:00 MST2.17P  13.7P  0.00P  
09/13/2014 12:15 MST2.17P  13.7P  0.00P  
09/13/2014 12:30 MST2.17P  13.7P  0.00P  
09/13/2014 12:45 MST2.17P  13.7P  0.00P  
09/13/2014 13:00 MST2.17P  13.7P  0.00P  
09/13/2014 13:15 MST2.17P  13.7P  0.00P  
09/13/2014 13:30 MST2.16P  13.2P  0.00P  
09/13/2014 13:45 MST2.16P  13.2P  0.00P  
09/13/2014 14:00 MST2.16P  13.2P  0.00P  
09/13/2014 14:15 MST2.16P  13.2P  0.00P  
09/13/2014 14:30 MST2.16P  13.2P  0.00P  
09/13/2014 14:45 MST2.16P  13.2P  0.00P  
09/13/2014 15:00 MST2.16P  13.2P  0.00P  
09/13/2014 15:15 MST2.16P  13.2P  0.00P  
09/13/2014 15:30 MST2.16P  13.2P  0.00P  
09/13/2014 15:45 MST2.16P  13.2P  0.00P  
09/13/2014 16:00 MST2.16P  13.2P  0.00P  
09/13/2014 16:15 MST2.16P  13.2P  0.00P  
09/13/2014 16:30 MST2.16P  13.2P  0.00P  
09/13/2014 16:45 MST2.16P  13.2P  0.00P  
09/13/2014 17:00 MST2.16P  13.2P  0.00P  
09/13/2014 17:15 MST2.16P  13.2P  0.00P  
09/13/2014 17:30 MST2.16P  13.2P  0.00P  
09/13/2014 17:45 MST2.15P  12.6P  0.00P  
09/13/2014 18:00 MST2.16P  13.2P  0.00P  
09/13/2014 18:15 MST2.16P  13.2P  0.00P  
09/13/2014 18:30 MST2.15P  12.6P  0.00P  
09/13/2014 18:45 MST2.15P  12.6P  0.00P  
09/13/2014 19:00 MST2.15P  12.6P  0.00P  
09/13/2014 19:15 MST2.15P  12.6P  0.00P  
09/13/2014 19:30 MST2.15P  12.6P  0.00P  
09/13/2014 19:45 MST2.15P  12.6P  0.00P  
09/13/2014 20:00 MST2.15P  12.6P  0.00P  
09/13/2014 20:14 MST2.15P  12.6P  0.00P  
09/13/2014 20:15 MST2.15P  12.6P  0.00P  
09/13/2014 20:29 MST2.15P  12.6P  0.00P  
09/13/2014 20:30 MST2.15P  12.6P  0.00P  
09/13/2014 20:45 MST2.15P  12.6P  0.00P  
09/13/2014 21:00 MST2.15P  12.6P  0.00P  
09/13/2014 21:15 MST2.15P  12.6P  0.00P  
09/13/2014 21:30 MST2.15P  12.6P  0.00P  
09/13/2014 21:45 MST2.15P  12.6P  0.00P  
09/13/2014 22:00 MST2.15P  12.6P  0.00P  
09/13/2014 22:15 MST2.15P  12.6P  0.00P  
09/13/2014 22:30 MST2.15P  12.6P  0.00P  
09/13/2014 22:45 MST2.15P  12.6P  0.00P  
09/13/2014 23:00 MST2.15P  12.6P  0.00P  
09/13/2014 23:15 MST2.15P  12.6P  0.00P  
09/13/2014 23:30 MST2.15P  12.6P  0.00P  
09/13/2014 23:45 MST2.15P  12.6P  0.00P  
09/14/2014 00:00 MST2.15P  12.6P  0.00P  
09/14/2014 00:15 MST2.15P  12.6P  0.00P  
09/14/2014 00:30 MST2.15P  12.6P  0.00P  
09/14/2014 00:45 MST2.15P  12.6P  0.00P  
09/14/2014 01:00 MST2.15P  12.6P  0.00P  
09/14/2014 01:15 MST2.15P  12.6P  0.00P  
09/14/2014 01:30 MST2.15P  12.6P  0.00P  
09/14/2014 01:45 MST2.15P  12.6P  0.00P  
09/14/2014 02:00 MST2.15P  12.6P  0.00P  
09/14/2014 02:15 MST2.15P  12.6P  0.00P  
09/14/2014 02:30 MST2.15P  12.6P  0.00P  
09/14/2014 02:45 MST2.16P  13.2P  0.00P  
09/14/2014 03:00 MST2.15P  12.6P  0.00P  
09/14/2014 03:15 MST2.15P  12.6P  0.00P  
09/14/2014 03:30 MST2.15P  12.6P  0.00P  
09/14/2014 03:45 MST2.15P  12.6P  0.00P  
09/14/2014 04:00 MST2.15P  12.6P  0.00P  
09/14/2014 04:15 MST2.15P  12.6P  0.00P  
09/14/2014 04:30 MST2.15P  12.6P  0.00P  
09/14/2014 04:45 MST2.15P  12.6P  0.00P  
09/14/2014 05:00 MST2.15P  12.6P  0.00P  
09/14/2014 05:15 MST2.15P  12.6P  0.00P  
09/14/2014 05:30 MST2.15P  12.6P  0.00P  
09/14/2014 05:45 MST2.15P  12.6P  0.00P  
09/14/2014 06:00 MST2.15P  12.6P  0.00P  
09/14/2014 06:15 MST2.15P  12.6P  0.00P  
09/14/2014 06:30 MST2.15P  12.6P  0.00P  
09/14/2014 06:45 MST2.15P  12.6P  0.00P  
09/14/2014 07:00 MST2.16P  13.2P  0.00P  
09/14/2014 07:15 MST2.15P  12.6P  0.00P  
09/14/2014 07:30 MST2.15P  12.6P  0.00P  
09/14/2014 07:45 MST2.16P  13.2P  0.00P  
09/14/2014 08:00 MST2.15P  12.6P  0.00P  
09/14/2014 08:15 MST2.15P  12.6P  0.00P  
09/14/2014 08:30 MST2.15P  12.6P  0.00P  
09/14/2014 08:45 MST2.15P  12.6P  0.00P  
09/14/2014 09:00 MST2.16P  13.2P  0.00P  
09/14/2014 09:15 MST2.15P  12.6P  0.00P  
09/14/2014 09:30 MST2.15P  12.6P  0.00P  
09/14/2014 09:45 MST2.15P  12.6P  0.00P  
09/14/2014 10:00 MST2.15P  12.6P  0.00P  
09/14/2014 10:15 MST2.15P  12.6P  0.00P  
09/14/2014 10:30 MST2.15P  12.6P  0.00P  
09/14/2014 10:45 MST2.15P  12.6P  0.00P  
09/14/2014 11:00 MST2.15P  12.6P  0.00P  
09/14/2014 11:15 MST2.15P  12.6P  0.00P  
09/14/2014 11:30 MST2.15P  12.6P  0.00P  
09/14/2014 11:45 MST2.15P  12.6P  0.00P  
09/14/2014 12:00 MST2.15P  12.6P  0.00P  
09/14/2014 12:15 MST2.15P  12.6P  0.00P  
09/14/2014 12:30 MST2.15P  12.6P  0.00P  
09/14/2014 12:45 MST2.15P  12.6P  0.00P  
09/14/2014 13:00 MST2.14P  12.1P  0.00P  
09/14/2014 13:15 MST2.15P  12.6P  0.00P  
09/14/2014 13:30 MST2.15P  12.6P  0.00P  
09/14/2014 13:45 MST2.15P  12.6P  0.00P  
09/14/2014 14:00 MST2.15P  12.6P  0.00P  
09/14/2014 14:15 MST2.15P  12.6P  0.00P  
09/14/2014 14:30 MST2.14P  12.1P  0.00P  
09/14/2014 14:45 MST2.15P  12.6P  0.00P  
09/14/2014 15:00 MST2.14P  12.1P  0.00P  
09/14/2014 15:15 MST2.15P  12.6P  0.00P  
09/14/2014 15:30 MST2.14P  12.1P  0.00P  
09/14/2014 15:45 MST2.15P  12.6P  0.00P  
09/14/2014 16:00 MST2.15P  12.6P  0.00P  
09/14/2014 16:15 MST2.15P  12.6P  0.00P  
09/14/2014 16:30 MST2.15P  12.6P  0.00P  
09/14/2014 16:45 MST2.15P  12.6P  0.00P  
09/14/2014 17:00 MST2.14P  12.1P  0.00P  
09/14/2014 17:15 MST2.14P  12.1P  0.00P  
09/14/2014 17:30 MST2.14P  12.1P  0.00P  
09/14/2014 17:45 MST2.14P  12.1P  0.00P  
09/14/2014 18:00 MST2.14P  12.1P  0.00P  
09/14/2014 18:15 MST2.14P  12.1P  0.00P  
09/14/2014 18:30 MST2.14P  12.1P  0.00P  
09/14/2014 18:45 MST2.14P  12.1P  0.00P  
09/14/2014 19:00 MST2.14P  12.1P  0.00P  
09/14/2014 19:15 MST2.14P  12.1P  0.00P  
09/14/2014 19:30 MST2.14P  12.1P  0.00P  
09/14/2014 19:45 MST2.14P  12.1P  0.00P  
09/14/2014 20:00 MST2.14P  12.1P  0.00P  
09/14/2014 20:14 MST2.14P  12.1P  0.00P  
09/14/2014 20:15 MST2.14P  12.1P  0.00P  
09/14/2014 20:29 MST2.14P  12.1P  0.00P  
09/14/2014 20:30 MST2.14P  12.1P  0.00P  
09/14/2014 20:45 MST2.14P  12.1P  0.00P  
09/14/2014 21:00 MST2.14P  12.1P  0.00P  
09/14/2014 21:15 MST2.14P  12.1P  0.00P  
09/14/2014 21:30 MST2.14P  12.1P  0.00P  
09/14/2014 21:45 MST2.14P  12.1P  0.00P  
09/14/2014 22:00 MST2.14P  12.1P  0.00P  
09/14/2014 22:15 MST2.14P  12.1P  0.00P  
09/14/2014 22:30 MST2.14P  12.1P  0.00P  
09/14/2014 22:45 MST2.14P  12.1P  0.00P  
09/14/2014 23:00 MST2.14P  12.1P  0.00P  
09/14/2014 23:15 MST2.14P  12.1P  0.00P  
09/14/2014 23:30 MST2.14P  12.1P  0.00P  
09/14/2014 23:45 MST2.14P  12.1P  0.00P  
09/15/2014 00:00 MST2.14P  12.1P  0.00P  
09/15/2014 00:15 MST2.14P  12.1P  0.00P  
09/15/2014 00:30 MST2.14P  12.1P  0.00P  
09/15/2014 00:45 MST2.14P  12.1P  0.00P  
09/15/2014 01:00 MST2.14P  12.1P  0.00P  
09/15/2014 01:15 MST2.14P  12.1P  0.00P  
09/15/2014 01:30 MST2.14P  12.1P  0.00P  
09/15/2014 01:45 MST2.14P  12.1P  0.00P  
09/15/2014 02:00 MST2.14P  12.1P  0.00P  
09/15/2014 02:15 MST2.14P  12.1P  0.00P  
09/15/2014 02:30 MST2.14P  12.1P  0.00P  
09/15/2014 02:45 MST2.14P  12.1P  0.00P  
09/15/2014 03:00 MST2.14P  12.1P  0.00P  
09/15/2014 03:15 MST2.14P  12.1P  0.00P  
09/15/2014 03:30 MST2.14P  12.1P  0.00P  
09/15/2014 03:45 MST2.14P  12.1P  0.00P  
09/15/2014 04:00 MST2.14P  12.1P  0.00P  
09/15/2014 04:15 MST2.14P  12.1P  0.00P  
09/15/2014 04:30 MST2.14P  12.1P  0.00P  
09/15/2014 04:45 MST2.14P  12.1P  0.00P  
09/15/2014 05:00 MST2.14P  12.1P  0.00P  
09/15/2014 05:15 MST2.14P  12.1P  0.00P  
09/15/2014 05:30 MST2.14P  12.1P  0.00P  
09/15/2014 05:45 MST2.14P  12.1P  0.00P  
09/15/2014 06:00 MST2.14P  12.1P  0.00P  
09/15/2014 06:15 MST2.14P  12.1P  0.00P  
09/15/2014 06:30 MST2.14P  12.1P  0.00P  
09/15/2014 06:45 MST2.14P  12.1P  0.00P  
09/15/2014 07:00 MST2.14P  12.1P  0.00P  
09/15/2014 07:15 MST2.14P  12.1P  0.00P  
09/15/2014 07:30 MST2.14P  12.1P  0.00P  
09/15/2014 07:45 MST2.14P  12.1P  0.00P  
09/15/2014 08:00 MST2.15P  12.6P  0.00P  
09/15/2014 08:15 MST2.15P  12.6P  0.00P  
09/15/2014 08:30 MST2.14P  12.1P  0.00P  
09/15/2014 08:45 MST2.14P  12.1P  0.00P  
09/15/2014 09:00 MST2.14P  12.1P  0.00P  
09/15/2014 09:15 MST2.14P  12.1P  0.00P  
09/15/2014 09:30 MST2.14P  12.1P  0.00P  
09/15/2014 09:45 MST2.14P  12.1P  0.00P  
09/15/2014 10:00 MST2.14P  12.1P  0.00P  
09/15/2014 10:15 MST2.14P  12.1P  0.00P  
09/15/2014 10:30 MST2.14P  12.1P  0.00P  
09/15/2014 10:45 MST2.14P  12.1P  0.00P  
09/15/2014 11:00 MST2.14P  12.1P  0.00P  
09/15/2014 11:15 MST2.14P  12.1P  0.00P  
09/15/2014 11:30 MST2.14P  12.1P  0.00P  
09/15/2014 11:45 MST2.14P  12.1P  0.00P  
09/15/2014 12:00 MST2.14P  12.1P  0.00P  
09/15/2014 12:15 MST2.14P  12.1P  0.00P  
09/15/2014 12:30 MST2.14P  12.1P  0.00P  
09/15/2014 12:45 MST2.14P  12.1P  0.00P  
09/15/2014 13:00 MST2.14P  12.1P  0.00P  
09/15/2014 13:15 MST2.14P  12.1P  0.00P  
09/15/2014 13:30 MST2.14P  12.1P  0.00P  
09/15/2014 13:45 MST2.14P  12.1P  0.00P  
09/15/2014 14:00 MST2.14P  12.1P  0.00P  
09/15/2014 14:15 MST2.14P  12.1P  0.00P  
09/15/2014 14:30 MST2.14P  12.1P  0.00P  
09/15/2014 14:45 MST2.13P  11.6P  0.00P  
09/15/2014 15:00 MST2.14P  12.1P  0.00P  
09/15/2014 15:15 MST2.13P  11.6P  0.00P  
09/15/2014 15:30 MST2.14P  12.1P  0.00P  
09/15/2014 15:45 MST2.13P  11.6P  0.00P  
09/15/2014 16:00 MST2.13P  11.6P  0.00P  
09/15/2014 16:15 MST2.13P  11.6P  0.00P  
09/15/2014 16:30 MST2.14P  12.1P  0.00P  
09/15/2014 16:45 MST2.13P  11.6P  0.00P  
09/15/2014 17:00 MST2.13P  11.6P  0.00P  
09/15/2014 17:15 MST2.13P  11.6P  0.00P  
09/15/2014 17:30 MST2.13P  11.6P  0.00P  
09/15/2014 17:45 MST2.13P  11.6P  0.00P  
09/15/2014 18:00 MST2.13P  11.6P  0.00P  
09/15/2014 18:15 MST2.13P  11.6P  0.00P  
09/15/2014 18:30 MST2.13P  11.6P  0.00P  
09/15/2014 18:45 MST2.13P  11.6P  0.00P  
09/15/2014 19:00 MST2.13P  11.6P  0.00P  
09/15/2014 19:15 MST2.13P  11.6P  0.00P  
09/15/2014 19:30 MST2.13P  11.6P  0.00P  
09/15/2014 19:45 MST2.13P  11.6P  0.00P  
09/15/2014 20:00 MST2.13P  11.6P  0.00P  
09/15/2014 20:14 MST2.13P  11.6P  0.00P  
09/15/2014 20:15 MST2.13P  11.6P  0.00P  
09/15/2014 20:29 MST2.13P  11.6P  0.00P  
09/15/2014 20:30 MST2.13P  11.6P  0.00P  
09/15/2014 20:45 MST2.13P  11.6P  0.00P  
09/15/2014 21:00 MST2.13P  11.6P  0.00P  
09/15/2014 21:15 MST2.13P  11.6P  0.00P  
09/15/2014 21:30 MST2.13P  11.6P  0.00P  
09/15/2014 21:45 MST2.13P  11.6P  0.00P  
09/15/2014 22:00 MST2.13P  11.6P  0.00P  
09/15/2014 22:15 MST2.13P  11.6P  0.00P  
09/15/2014 22:30 MST2.13P  11.6P  0.00P  
09/15/2014 22:45 MST2.13P  11.6P  0.00P  
09/15/2014 23:00 MST2.13P  11.6P  0.00P  
09/15/2014 23:15 MST2.13P  11.6P  0.00P  
09/15/2014 23:30 MST2.13P  11.6P  0.00P  
09/15/2014 23:45 MST2.13P  11.6P  0.00P  
09/16/2014 00:00 MST2.13P  11.6P  0.00P  
09/16/2014 00:15 MST2.13P  11.6P  0.00P  
09/16/2014 00:30 MST2.13P  11.6P  0.00P  
09/16/2014 00:45 MST2.13P  11.6P  0.00P  
09/16/2014 01:00 MST2.13P  11.6P  0.00P  
09/16/2014 01:15 MST2.13P  11.6P  0.01P  
09/16/2014 01:30 MST2.13P  11.6P  0.01P  
09/16/2014 01:45 MST2.14P  12.1P  0.01P  
09/16/2014 02:00 MST2.14P  12.1P  0.02P  
09/16/2014 02:15 MST2.14P  12.1P  0.00P  
09/16/2014 02:30 MST2.14P  12.1P  0.00P  
09/16/2014 02:45 MST2.14P  12.1P  0.01P  
09/16/2014 03:00 MST2.14P  12.1P  0.00P  
09/16/2014 03:15 MST2.14P  12.1P  0.01P  
09/16/2014 03:30 MST2.14P  12.1P  0.02P  
09/16/2014 03:45 MST2.14P  12.1P  0.03P  
09/16/2014 04:00 MST2.14P  12.1P  0.02P  
09/16/2014 04:15 MST2.15P  12.6P  0.02P  
09/16/2014 04:30 MST2.15P  12.6P  0.04P  
09/16/2014 04:45 MST2.16P  13.2P  0.03P  
09/16/2014 05:00 MST2.16P  13.2P  0.01P  
09/16/2014 05:15 MST2.16P  13.2P  0.00P  
09/16/2014 05:30 MST2.15P  12.6P  0.00P  
09/16/2014 05:45 MST2.15P  12.6P  0.00P  
09/16/2014 06:00 MST2.15P  12.6P  0.00P  
09/16/2014 06:15 MST2.15P  12.6P  0.00P  
09/16/2014 06:30 MST2.15P  12.6P  0.00P  
09/16/2014 06:45 MST2.15P  12.6P  0.00P  
09/16/2014 07:00 MST2.15P  12.6P  0.00P  
09/16/2014 07:15 MST2.15P  12.6P  0.00P  
09/16/2014 07:30 MST2.15P  12.6P  0.00P  
09/16/2014 07:45 MST2.15P  12.6P  0.00P  
09/16/2014 08:00 MST2.15P  12.6P  0.00P  
09/16/2014 08:15 MST2.15P  12.6P  0.00P  
09/16/2014 08:30 MST2.15P  12.6P  0.00P  
09/16/2014 08:45 MST2.15P  12.6P  0.00P  
09/16/2014 09:00 MST2.15P  12.6P  0.00P  
09/16/2014 09:15 MST2.15P  12.6P  0.00P  
09/16/2014 09:30 MST2.15P  12.6P  0.00P  
09/16/2014 09:45 MST2.15P  12.6P  0.00P  
09/16/2014 10:00 MST2.15P  12.6P  0.00P  
09/16/2014 10:15 MST2.15P  12.6P  0.00P  
09/16/2014 10:30 MST2.15P  12.6P  0.00P  
09/16/2014 10:45 MST2.15P  12.6P  0.00P  
09/16/2014 11:00 MST2.15P  12.6P  0.00P  
09/16/2014 11:15 MST2.15P  12.6P  0.00P  
09/16/2014 11:30 MST2.14P  12.1P  0.00P  
09/16/2014 11:45 MST2.15P  12.6P  0.00P  
09/16/2014 12:00 MST2.15P  12.6P  0.00P  
09/16/2014 12:15 MST2.15P  12.6P  0.00P  
09/16/2014 12:30 MST2.15P  12.6P  0.00P  
09/16/2014 12:45 MST2.15P  12.6P  0.00P  
09/16/2014 13:00 MST2.15P  12.6P  0.00P  
09/16/2014 13:15 MST2.14P  12.1P  0.00P  
09/16/2014 13:30 MST2.14P  12.1P  0.00P  
09/16/2014 13:45 MST2.15P  12.6P  0.00P  
09/16/2014 14:00 MST2.14P  12.1P  0.00P  
09/16/2014 14:15 MST2.14P  12.1P  0.00P  
09/16/2014 14:30 MST2.14P  12.1P  0.01P  
09/16/2014 14:45 MST2.14P  12.1P  0.00P  
09/16/2014 15:00 MST2.15P  12.6P  0.00P  
09/16/2014 15:15 MST2.14P  12.1P  0.00P  
09/16/2014 15:30 MST2.14P  12.1P  0.00P  
09/16/2014 15:45 MST2.14P  12.1P  0.00P  
09/16/2014 16:00 MST2.14P  12.1P  0.00P  
09/16/2014 16:15 MST2.14P  12.1P  0.00P  
09/16/2014 16:30 MST2.14P  12.1P  0.00P  
09/16/2014 16:45 MST2.14P  12.1P  0.00P  
09/16/2014 17:00 MST2.15P  12.6P  0.00P  
09/16/2014 17:15 MST2.14P  12.1P  0.00P  
09/16/2014 17:30 MST2.14P  12.1P  0.00P  
09/16/2014 17:45 MST2.14P  12.1P  0.00P  
09/16/2014 18:00 MST2.15P  12.6P  0.00P  
09/16/2014 18:15 MST2.14P  12.1P  0.00P  
09/16/2014 18:30 MST2.14P  12.1P  0.00P  
09/16/2014 18:45 MST2.14P  12.1P  0.00P  
09/16/2014 19:00 MST2.15P  12.6P  0.00P  
09/16/2014 19:15 MST2.14P  12.1P  0.00P  
09/16/2014 19:30 MST2.14P  12.1P  0.00P  
09/16/2014 19:45 MST2.14P  12.1P  0.00P  
09/16/2014 19:59 MST2.15P  12.6P  0.08P  
09/16/2014 20:00 MST2.15P  12.6P  0.00P  
09/16/2014 20:14 MST2.16P  13.2P  0.06P  
09/16/2014 20:15 MST2.16P  13.2P  0.00P  
09/16/2014 20:30 MST2.16P  13.2P  0.02P  
09/16/2014 20:45 MST2.16P  13.2P  0.00P  
09/16/2014 21:00 MST2.16P  13.2P  0.01P  
09/16/2014 21:15 MST2.16P  13.2P  0.01P  
09/16/2014 21:30 MST2.16P  13.2P  0.00P  
09/16/2014 21:45 MST2.16P  13.2P  0.00P  
09/16/2014 22:00 MST2.16P  13.2P  0.00P  
09/16/2014 22:15 MST2.16P  13.2P  0.00P  
09/16/2014 22:30 MST2.16P  13.2P  0.00P  
09/16/2014 22:45 MST2.16P  13.2P  0.05P  
09/16/2014 23:00 MST2.16P  13.2P  0.02P  
09/16/2014 23:15 MST2.17P  13.7P  0.03P  
09/16/2014 23:30 MST2.17P  13.7P  0.00P  
09/16/2014 23:45 MST2.17P  13.7P  0.01P  
09/17/2014 00:00 MST2.17P  13.7P  0.02P  
09/17/2014 00:15 MST2.17P  13.7P  0.01P  
09/17/2014 00:30 MST2.18P  14.3P  0.03P  
09/17/2014 00:45 MST2.18P  14.3P  0.04P  
09/17/2014 01:00 MST2.19P  14.8P  0.09P  
09/17/2014 01:15 MST2.20P  15.4P  0.05P  
09/17/2014 01:30 MST2.22P  16.6P  0.13P  
09/17/2014 01:45 MST2.23P  17.3P  0.06P  
09/17/2014 02:00 MST2.23P  17.3P  0.02P  
09/17/2014 02:15 MST2.23P  17.3P  0.01P  
09/17/2014 02:30 MST2.23P  17.3P  0.00P  
09/17/2014 02:45 MST2.23P  17.3P  0.00P  
09/17/2014 03:00 MST2.24P  17.9P  0.09P  
09/17/2014 03:15 MST2.25P  18.6P  0.01P  
09/17/2014 03:30 MST2.25P  18.6P  0.00P  
09/17/2014 03:45 MST2.24P  17.9P  0.00P  
09/17/2014 03:59 MST2.24P  17.9P  0.00P  
09/17/2014 04:00 MST2.24P  17.9P  0.00P  
09/17/2014 04:14 MST4.31P  508P  0.00P  
09/17/2014 04:15 MST4.31P  508P  0.00P  
09/17/2014 04:29 MST4.82P  764P  0.00P  
09/17/2014 04:30 MST4.82P  764P  0.00P  
09/17/2014 04:44 MST5.13P  958P  0.00P  
09/17/2014 04:45 MST5.13P  958P  0.00P  
09/17/2014 05:00 MST5.05P  906P  0.00P  
09/17/2014 05:14 MST5.16P  972P  0.00P  
09/17/2014 05:15 MST5.16P  972P  0.00P  
09/17/2014 05:29 MST4.98P  857P  0.00P  
09/17/2014 05:30 MST4.98P  857P  0.00P  
09/17/2014 05:44 MST4.73P  713P  0.00P  
09/17/2014 05:45 MST4.73P  713P  0.00P  
09/17/2014 05:59 MST4.77P  738P  0.00P  
09/17/2014 06:00 MST4.77P  738P  0.00P  
09/17/2014 06:14 MST4.82P  764P  0.00P  
09/17/2014 06:15 MST4.82P  764P  0.00P  
09/17/2014 06:29 MST4.86P  790P  0.00P  
09/17/2014 06:30 MST4.86P  790P  0.00P  
09/17/2014 06:44 MST4.75P  726P  0.00P  
09/17/2014 06:45 MST4.75P  726P  0.00P  
09/17/2014 06:59 MST4.66P  677P  0.00P  
09/17/2014 07:00 MST4.66P  677P  0.00P  
09/17/2014 07:14 MST4.41P  554P  0.00P  
09/17/2014 07:15 MST4.41P  554P  0.00P  
09/17/2014 07:29 MST4.13P  433P  0.00P  
09/17/2014 07:30 MST4.13P  433P  0.00P  
09/17/2014 07:45 MST3.96P  369P  0.00P  
09/17/2014 08:00 MST3.82P  323P  0.00P  
09/17/2014 08:15 MST3.65P  271P  0.00P  
09/17/2014 08:30 MST3.52P  233P  0.00P  
09/17/2014 08:45 MST3.39P  201P  0.00P  
09/17/2014 09:00 MST3.25P  165P  0.00P  
09/17/2014 09:15 MST3.19P  150P  0.00P  
09/17/2014 09:30 MST3.06P  121P  0.00P  
09/17/2014 09:45 MST3.00P  109P  0.01P  
09/17/2014 10:00 MST2.95P  99.8P  0.00P  
09/17/2014 10:15 MST2.88P  87.6P  0.00P  
09/17/2014 10:30 MST2.89P  89.3P  0.00P  
09/17/2014 10:45 MST3.45P  215P  0.00P  
09/17/2014 11:00 MST3.72P  291P  0.00P  
09/17/2014 11:15 MST3.86P  334P  0.00P  
09/17/2014 11:30 MST3.84P  331P  0.00P  
09/17/2014 11:45 MST3.89P  346P  0.00P  
09/17/2014 12:00 MST3.87P  338P  0.00P  
09/17/2014 12:15 MST3.83P  327P  0.01P  
09/17/2014 12:30 MST3.91P  354P  0.01P  
09/17/2014 12:45 MST3.81P  319P  0.00P  
09/17/2014 13:00 MST3.81P  319P  0.00P  
09/17/2014 13:15 MST3.75P  301P  0.00P  
09/17/2014 13:30 MST3.78P  308P  0.00P  
09/17/2014 13:45 MST3.68P  281P  0.01P  
09/17/2014 14:00 MST3.65P  271P  0.00P  
09/17/2014 14:15 MST3.65P  271P  0.00P  
09/17/2014 14:30 MST3.65P  271P  0.00P  
09/17/2014 14:45 MST3.62P  261P  0.00P  
09/17/2014 15:00 MST3.50P  230P  0.00P  
09/17/2014 15:15 MST3.48P  224P  0.03P  
09/17/2014 15:30 MST3.49P  227P  0.02P  
09/17/2014 15:45 MST3.46P  218P  0.01P  
09/17/2014 16:00 MST3.39P  201P  0.03P  
09/17/2014 16:15 MST3.39P  201P  0.02P  
09/17/2014 16:30 MST3.35P  189P  0.01P  
09/17/2014 16:45 MST3.36P  192P  0.03P  
09/17/2014 17:00 MST3.40P  203P  0.04P  
09/17/2014 17:15 MST3.42P  209P  0.05P  
09/17/2014 17:30 MST3.47P  221P  0.09P  
09/17/2014 17:45 MST3.52P  233P  0.06P  
09/17/2014 18:00 MST3.56P  245P  0.06P  
09/17/2014 18:15 MST3.58P  251P  0.08P  
09/17/2014 18:30 MST3.65P  271P  0.08P  
09/17/2014 18:45 MST3.69P  281P  0.04P  
09/17/2014 19:00 MST3.71P  287P  0.00P  
09/17/2014 19:15 MST3.74P  298P  0.04P  
09/17/2014 19:30 MST3.79P  312P  0.08P  
09/17/2014 19:45 MST3.85P  334P  0.03P  
09/17/2014 20:00 MST3.95P  365P  0.02P  
09/17/2014 20:15 MST4.19P  461P  0.01P  
09/17/2014 20:29 MST4.37P  534P  0.00P  
09/17/2014 20:30 MST4.37P  534P  0.00P  
09/17/2014 20:44 MST4.37P  534P  0.00P  
09/17/2014 20:45 MST4.71P  701P  0.00P  
09/17/2014 20:59 MST4.71P  701P  0.00P  
09/17/2014 21:00 MST5.48P  1,190P  0.00P  
09/17/2014 21:14 MST5.49P  1,200P  0.01P  
09/17/2014 21:15 MST5.49P  1,200P  0.00P  
09/17/2014 21:29 MST5.75P  1,400P  0.01P  
09/17/2014 21:30 MST5.75P  1,400P  0.00P  
09/17/2014 21:44 MST6.07P  1,690P  0.02P  
09/17/2014 21:45 MST6.07P  1,690P  0.00P  
09/17/2014 21:59 MST6.11P  1,730P  0.00P  
09/17/2014 22:00 MST6.11P  1,730P  0.00P  
09/17/2014 22:14 MST6.18P  1,790P  0.02P  
09/17/2014 22:15 MST6.18P  1,790P  0.00P  
09/17/2014 22:29 MST6.24P  1,860P  0.01P  
09/17/2014 22:30 MST6.24P  1,860P  0.00P  
09/17/2014 22:44 MST6.11P  1,730P  0.03P  
09/17/2014 22:45 MST6.11P  1,730P  0.00P  
09/17/2014 22:59 MST5.88P  1,510P  0.02P  
09/17/2014 23:00 MST5.88P  1,510P  0.00P  
09/17/2014 23:14 MST5.74P  1,400P  0.05P  
09/17/2014 23:15 MST5.74P  1,400P  0.00P  
09/17/2014 23:29 MST5.50P  1,210P  0.09P  
09/17/2014 23:30 MST5.50P  1,210P  0.00P  
09/17/2014 23:45 MST5.40P  1,140P  0.06P  
09/17/2014 23:59 MST5.36P  1,110P  0.01P  
09/18/2014 00:00 MST5.36P  1,110P  0.00P  
09/18/2014 00:14 MST5.31P  1,070P  0.00P  
09/18/2014 00:15 MST5.31P  1,070P  0.00P  
09/18/2014 00:29 MST5.24P  1,030P  0.00P  
09/18/2014 00:30 MST5.24P  1,030P  0.00P  
09/18/2014 00:44 MST5.07P  914P  0.00P  
09/18/2014 00:45 MST5.07P  914P  0.00P  
09/18/2014 00:59 MST5.01P  878P  0.00P  
09/18/2014 01:00 MST5.01P  878P  0.00P  
09/18/2014 01:14 MST5.02P  885P  0.00P  
09/18/2014 01:15 MST5.02P  885P  0.00P  
09/18/2014 01:29 MST4.98P  857P  0.01P  
09/18/2014 01:30 MST4.98P  857P  0.00P  
09/18/2014 01:44 MST5.07P  914P  0.00P  
09/18/2014 01:45 MST5.07P  914P  0.00P  
09/18/2014 01:59 MST5.04P  899P  0.01P  
09/18/2014 02:00 MST5.04P  899P  0.00P  
09/18/2014 02:14 MST5.11P  943P  0.01P  
09/18/2014 02:15 MST5.11P  943P  0.00P  
09/18/2014 02:29 MST5.06P  906P  0.03P  
09/18/2014 02:30 MST5.06P  906P  0.00P  
09/18/2014 02:44 MST5.22P  1,020P  0.02P  
09/18/2014 02:45 MST5.22P  1,020P  0.00P  
09/18/2014 02:59 MST5.22P  1,020P  0.03P  
09/18/2014 03:00 MST5.22P  1,020P  0.00P  
09/18/2014 03:14 MST5.23P  1,020P  0.01P  
09/18/2014 03:15 MST5.23P  1,020P  0.00P  
09/18/2014 03:29 MST5.16P  972P  0.00P  
09/18/2014 03:30 MST5.16P  972P  0.00P  
09/18/2014 03:44 MST5.19P  995P  0.00P  
09/18/2014 03:45 MST5.19P  995P  0.00P  
09/18/2014 03:59 MST5.19P  995P  0.01P  
09/18/2014 04:00 MST5.19P  995P  0.00P  
09/18/2014 04:14 MST5.11P  943P  0.02P  
09/18/2014 04:15 MST5.11P  943P  0.00P  
09/18/2014 04:29 MST5.13P  958P  0.00P  
09/18/2014 04:30 MST5.13P  958P  0.00P  
09/18/2014 04:44 MST5.24P  1,030P  0.01P  
09/18/2014 04:45 MST5.24P  1,030P  0.00P  
09/18/2014 04:59 MST5.21P  1,010P  0.00P  
09/18/2014 05:00 MST5.21P  1,010P  0.00P  
09/18/2014 05:14 MST5.21P  1,010P  0.01P  
09/18/2014 05:15 MST5.21P  1,010P  0.00P  
09/18/2014 05:29 MST5.31P  1,070P  0.01P  
09/18/2014 05:30 MST5.31P  1,070P  0.00P  
09/18/2014 05:44 MST5.26P  1,040P  0.00P  
09/18/2014 05:45 MST5.26P  1,040P  0.00P  
09/18/2014 05:59 MST5.38P  1,130P  0.00P  
09/18/2014 06:00 MST5.38P  1,130P  0.00P  
09/18/2014 06:14 MST5.28P  1,060P  0.01P  
09/18/2014 06:15 MST5.28P  1,060P  0.00P  
09/18/2014 06:29 MST5.32P  1,080P  0.02P  
09/18/2014 06:30 MST5.32P  1,080P  0.00P  
09/18/2014 06:44 MST5.54P  1,240P  0.00P  
09/18/2014 06:45 MST5.54P  1,240P  0.00P  
09/18/2014 06:59 MST5.61P  1,300P  0.00P  
09/18/2014 07:00 MST5.61P  1,300P  0.00P  
09/18/2014 07:14 MST5.71P  1,370P  0.00P  
09/18/2014 07:15 MST5.71P  1,370P  0.00P  
09/18/2014 07:30 MST5.51P  1,220P  0.00P  
09/18/2014 07:45 MST5.48P  1,190P  0.01P  
09/18/2014 07:59 MST5.80P  1,450P  0.00P  
09/18/2014 08:00 MST5.80P  1,450P  0.00P  
09/18/2014 08:14 MST5.86P  1,490P  0.00P  
09/18/2014 08:15 MST5.86P  1,490P  0.00P  
09/18/2014 08:29 MST6.03P  1,650P  0.00P  
09/18/2014 08:30 MST6.03P  1,650P  0.00P  
09/18/2014 08:44 MST6.09P  1,710P  0.00P  
09/18/2014 08:45 MST6.09P  1,710P  0.00P  
09/18/2014 08:59 MST5.76P  1,410P  0.00P  
09/18/2014 09:00 MST5.76P  1,410P  0.00P  
09/18/2014 09:14 MST5.69P  1,360P  0.00P  
09/18/2014 09:15 MST5.69P  1,360P  0.00P  
09/18/2014 09:29 MST5.83P  1,470P  0.00P  
09/18/2014 09:30 MST5.83P  1,470P  0.00P  
09/18/2014 09:44 MST5.80P  1,450P  0.00P  
09/18/2014 09:45 MST5.80P  1,450P  0.00P  
09/18/2014 09:59 MST5.69P  1,360P  0.00P  
09/18/2014 10:00 MST5.69P  1,360P  0.00P  
09/18/2014 10:14 MST6.08P  1,700P  0.00P  
09/18/2014 10:15 MST6.08P  1,700P  0.00P  
09/18/2014 10:29 MST6.14P  1,750P  0.00P  
09/18/2014 10:30 MST6.14P  1,750P  0.00P  
09/18/2014 10:44 MST6.06P  1,680P  0.00P  
09/18/2014 10:45 MST6.06P  1,680P  0.00P  
09/18/2014 10:59 MST6.09P  1,700P  0.00P  
09/18/2014 11:00 MST6.09P  1,700P  0.00P  
09/18/2014 11:14 MST6.10P  1,710P  0.00P  
09/18/2014 11:15 MST6.10P  1,710P  0.00P  
09/18/2014 11:29 MST6.17P  1,780P  0.00P  
09/18/2014 11:30 MST6.17P  1,780P  0.00P  
09/18/2014 11:44 MST6.41P  2,040P  0.00P  
09/18/2014 11:45 MST6.41P  2,040P  0.00P  
09/18/2014 11:59 MST6.17P  1,780P  0.00P  
09/18/2014 12:00 MST6.17P  1,780P  0.00P  
09/18/2014 12:14 MST6.10P  1,710P  0.00P  
09/18/2014 12:15 MST6.10P  1,710P  0.00P  
09/18/2014 12:29 MST6.37P  1,990P  0.00P  
09/18/2014 12:30 MST6.37P  1,990P  0.00P  
09/18/2014 12:44 MST6.41P  2,040P  0.00P  
09/18/2014 12:45 MST6.41P  2,040P  0.00P  
09/18/2014 12:59 MST6.45P  2,080P  0.00P  
09/18/2014 13:00 MST6.45P  2,080P  0.00P  
09/18/2014 13:14 MST6.65P  2,310P  0.00P  
09/18/2014 13:15 MST6.65P  2,310P  0.00P  
09/18/2014 13:29 MST6.82P  2,520P  0.00P  
09/18/2014 13:30 MST6.82P  2,520P  0.00P  
09/18/2014 13:44 MST6.92P  2,650P  0.00P  
09/18/2014 13:45 MST6.92P  2,650P  0.00P  
09/18/2014 13:59 MST6.93P  2,650P  0.00P  
09/18/2014 14:00 MST6.93P  2,650P  0.00P  
09/18/2014 14:14 MST7.00P  2,740P  0.00P  
09/18/2014 14:15 MST7.00P  2,740P  0.00P  
09/18/2014 14:29 MST7.11P  2,900P  0.00P  
09/18/2014 14:30 MST7.11P  2,900P  0.00P  
09/18/2014 14:44 MST7.37P  3,260P  0.00P  
09/18/2014 14:45 MST7.37P  3,260P  0.00P  
09/18/2014 14:59 MST7.14P  2,930P  0.00P  
09/18/2014 15:00 MST7.14P  2,930P  0.00P  
09/18/2014 15:14 MST7.33P  3,210P  0.00P  
09/18/2014 15:15 MST7.33P  3,210P  0.00P  
09/18/2014 15:29 MST7.46P  3,400P  0.00P  
09/18/2014 15:30 MST7.46P  3,400P  0.00P  
09/18/2014 15:44 MST7.56P  3,540P  0.00P  
09/18/2014 15:45 MST7.56P  3,540P  0.00P  
09/18/2014 15:59 MST7.76P  3,860P  0.00P  
09/18/2014 16:00 MST7.76P  3,860P  0.00P  
09/18/2014 16:14 MST7.91P  4,120P  0.00P  
09/18/2014 16:15 MST7.91P  4,120P  0.00P  
09/18/2014 16:30 MST7.87P  4,050P  0.00P  
09/18/2014 16:45 MST8.16P  4,540P  0.00P  
09/18/2014 16:59 MST8.48P  5,160P  0.00P  
09/18/2014 17:00 MST8.48P  5,160P  0.00P  
09/18/2014 17:14 MST8.60P  5,400P  0.00P  
09/18/2014 17:15 MST8.60P  5,400P  0.00P  
09/18/2014 17:29 MST9.15P  6,650P  0.00P  
09/18/2014 17:30 MST9.15P  6,650P  0.00P  
09/18/2014 17:44 MST9.98P  8,870P  0.00P  
09/18/2014 17:45 MST9.98P  8,870P  0.00P  
09/18/2014 17:59 MST9.98P  8,870P  0.00P  
09/18/2014 18:00 MST9.98P  8,870P  0.00P  
09/18/2014 18:14 MST9.90P  8,630P  0.00P  
09/18/2014 18:15 MST9.90P  8,630P  0.00P  
09/18/2014 18:29 MST10.61P  11,200P  0.00P  
09/18/2014 18:30 MST10.61P  11,200P  0.00P  
09/18/2014 18:44 MST10.78P  12,100P  0.00P  
09/18/2014 18:45 MST10.78P  12,100P  0.00P  
09/18/2014 18:59 MST11.36P  15,900P  0.00P  
09/18/2014 19:00 MST11.36P  15,900P  0.00P  
09/18/2014 19:14 MST11.38P  16,000P  0.00P  
09/18/2014 19:15 MST11.38P  16,000P  0.00P  
09/18/2014 19:29 MST11.53P  17,100P  0.00P  
09/18/2014 19:30 MST11.53P  17,100P  0.00P  
09/18/2014 19:44 MST11.80P  19,200P  0.00P  
09/18/2014 19:45 MST11.80P  19,200P  0.00P  
09/18/2014 19:59 MST11.62P  17,800P  0.00P  
09/18/2014 20:00 MST11.62P  17,800P  0.00P  
09/18/2014 20:14 MST      0.00P  
09/18/2014 20:15 MST      0.00P  
09/18/2014 20:29 MST11.81P  19,300P  0.00P  
09/18/2014 20:30 MST11.81P  19,300P  0.00P  
09/18/2014 20:44 MST11.69P  18,400P  0.00P  
09/18/2014 20:45 MST11.69P  18,400P  0.00P  
09/18/2014 20:59 MST11.67P  18,200P  0.00P  
09/18/2014 21:00 MST11.67P  18,200P  0.00P  
09/18/2014 21:14 MST11.84P  19,600P  0.00P  
09/18/2014 21:15 MST11.84P  19,600P  0.00P  
09/18/2014 21:29 MST11.84P  19,600P  0.00P  
09/18/2014 21:30 MST11.84P  19,600P  0.00P  
09/18/2014 21:44 MST11.87P  19,800P  0.00P  
09/18/2014 21:45 MST11.87P  19,800P  0.00P  
09/18/2014 21:59 MST      0.00P  
09/18/2014 22:00 MST      0.00P  
09/18/2014 22:14 MST11.91P  20,200P  0.00P  
09/18/2014 22:15 MST11.91P  20,200P  0.00P  
09/18/2014 22:29 MST      0.00P  
09/18/2014 22:30 MST      0.00P  
09/18/2014 22:44 MST11.98P  20,800P  0.00P  
09/18/2014 22:45 MST11.98P  20,800P  0.00P  
09/18/2014 22:59 MST      0.00P  
09/18/2014 23:00 MST      0.00P  
09/18/2014 23:14 MST11.96P  20,600P  0.00P  
09/18/2014 23:15 MST11.96P  20,600P  0.00P  
09/18/2014 23:29 MST11.93P  20,400P  0.00P  
09/18/2014 23:30 MST11.93P  20,400P  0.00P  
09/18/2014 23:44 MST11.79P  19,200P  0.00P  
09/18/2014 23:45 MST11.79P  19,200P  0.00P  
09/18/2014 23:59 MST      0.00P  
09/19/2014 00:00 MST11.63P  17,900P  0.00P  
09/19/2014 00:14 MST11.47P  16,700P  0.00P  
09/19/2014 00:15 MST11.47P  16,700P  0.00P  
09/19/2014 00:29 MST      0.00P  
09/19/2014 00:30 MST      0.00P  
09/19/2014 00:44 MST11.72P  18,600P  0.00P  
09/19/2014 00:45 MST11.72P  18,600P  0.00P  
09/19/2014 00:59 MST11.63P  17,900P  0.00P  
09/19/2014 01:00 MST11.63P  17,900P  0.00P  
09/19/2014 01:14 MST11.85P  19,700P  0.00P  
09/19/2014 01:15 MST11.85P  19,700P  0.00P  
09/19/2014 01:29 MST      0.00P  
09/19/2014 01:30 MST      0.00P  
09/19/2014 01:44 MST      0.00P  
09/19/2014 01:45 MST      0.00P  
09/19/2014 01:59 MST11.56P  17,300P  0.00P  
09/19/2014 02:00 MST11.56P  17,300P  0.00P  
09/19/2014 02:14 MST11.76P  18,800P  0.00P  
09/19/2014 02:15 MST11.76P  18,800P  0.00P  
09/19/2014 02:29 MST11.18P  14,600P  0.00P  
09/19/2014 02:30 MST11.18P  14,600P  0.00P  
09/19/2014 02:44 MST11.32P  15,500P  0.00P  
09/19/2014 02:45 MST11.32P  15,500P  0.00P  
09/19/2014 02:59 MST11.30P  15,400P  0.00P  
09/19/2014 03:00 MST11.30P  15,400P  0.00P  
09/19/2014 03:14 MST10.95P  13,100P  0.00P  
09/19/2014 03:15 MST10.95P  13,100P  0.00P  
09/19/2014 03:29 MST10.98P  13,300P  0.00P  
09/19/2014 03:30 MST10.98P  13,300P  0.00P  
09/19/2014 03:44 MST10.99P  13,300P  0.00P  
09/19/2014 03:45 MST10.99P  13,300P  0.00P  
09/19/2014 03:59 MST10.99P  13,300P  0.00P  
09/19/2014 04:00 MST10.99P  13,300P  0.00P  
09/19/2014 04:14 MST10.79P  12,100P  0.00P  
09/19/2014 04:15 MST10.79P  12,100P  0.00P  
09/19/2014 04:29 MST10.78P  12,100P  0.00P  
09/19/2014 04:30 MST10.78P  12,100P  0.00P  
09/19/2014 04:44 MST10.35P  10,000P  0.00P  
09/19/2014 04:45 MST10.35P  10,000P  0.00P  
09/19/2014 04:59 MST10.60P  11,100P  0.00P  
09/19/2014 05:00 MST10.60P  11,100P  0.00P  
09/19/2014 05:14 MST10.40P  10,200P  0.00P  
09/19/2014 05:15 MST10.40P  10,200P  0.00P  
09/19/2014 05:29 MST10.00P  8,900P  0.00P  
09/19/2014 05:30 MST10.00P  8,900P  0.00P  
09/19/2014 05:44 MST10.24P  9,650P  0.00P  
09/19/2014 05:45 MST10.24P  9,650P  0.00P  
09/19/2014 05:59 MST10.10P  9,210P  0.00P  
09/19/2014 06:00 MST10.10P  9,210P  0.00P  
09/19/2014 06:14 MST10.05P  9,060P  0.00P  
09/19/2014 06:15 MST10.05P  9,060P  0.00P  
09/19/2014 06:29 MST9.93P  8,690P  0.00P  
09/19/2014 06:30 MST9.93P  8,690P  0.00P  
09/19/2014 06:44 MST10.07P  9,120P  0.00P  
09/19/2014 06:45 MST10.07P  9,120P  0.00P  
09/19/2014 06:59 MST10.06P  9,090P  0.00P  
09/19/2014 07:00 MST10.06P  9,090P  0.00P  
09/19/2014 07:14 MST10.03P  9,000P  0.00P  
09/19/2014 07:15 MST10.03P  9,000P  0.00P  
09/19/2014 07:29 MST9.71P  8,050P  0.00P  
09/19/2014 07:30 MST9.71P  8,050P  0.00P  
09/19/2014 07:44 MST9.57P  7,680P  0.00P  
09/19/2014 07:45 MST9.57P  7,680P  0.00P  
09/19/2014 07:59 MST9.59P  7,740P  0.00P  
09/19/2014 08:00 MST9.59P  7,740P  0.00P  
09/19/2014 08:14 MST9.79P  8,280P  0.00P  
09/19/2014 08:15 MST9.79P  8,280P  0.00P  
09/19/2014 08:29 MST9.38P  7,190P  0.00P  
09/19/2014 08:30 MST9.38P  7,190P  0.00P  
09/19/2014 08:44 MST9.72P  8,080P  0.00P  
09/19/2014 08:45 MST9.72P  8,080P  0.00P  
09/19/2014 08:59 MST9.57P  7,680P  0.00P  
09/19/2014 09:00 MST9.57P  7,680P  0.00P  
09/19/2014 09:14 MST9.19P  6,730P  0.00P  
09/19/2014 09:15 MST9.19P  6,730P  0.00P  
09/19/2014 09:29 MST9.42P  7,270P  0.00P  
09/19/2014 09:30 MST9.42P  7,270P  0.00P  
09/19/2014 09:44 MST9.26P  6,880P  0.00P  
09/19/2014 09:45 MST9.26P  6,880P  0.00P  
09/19/2014 09:59 MST9.22P  6,780P  0.00P  
09/19/2014 10:00 MST9.22P  6,780P  0.00P  
09/19/2014 10:14 MST9.46P  7,380P  0.00P  
09/19/2014 10:15 MST9.46P  7,380P  0.00P  
09/19/2014 10:29 MST9.41P  7,250P  0.00P  
09/19/2014 10:30 MST9.41P  7,250P  0.00P  
09/19/2014 10:44 MST9.03P  6,330P  0.00P  
09/19/2014 10:45 MST9.03P  6,330P  0.00P  
09/19/2014 11:00 MST9.13P  6,570P  0.00P  
09/19/2014 11:15 MST9.40P  7,220P  0.00P  
09/19/2014 11:29 MST9.07P  6,420P  0.00P  
09/19/2014 11:30 MST9.07P  6,420P  0.00P  
09/19/2014 11:44 MST8.97P  6,200P  0.00P  
09/19/2014 11:45 MST8.97P  6,200P  0.00P  
09/19/2014 11:59 MST9.09P  6,470P  0.00P  
09/19/2014 12:00 MST9.09P  6,470P  0.00P  
09/19/2014 12:14 MST9.03P  6,330P  0.00P  
09/19/2014 12:15 MST9.03P  6,330P  0.00P  
09/19/2014 12:29 MST9.02P  6,300P  0.00P  
09/19/2014 12:30 MST9.02P  6,300P  0.00P  
09/19/2014 12:44 MST9.07P  6,420P  0.00P  
09/19/2014 12:45 MST9.07P  6,420P  0.00P  
09/19/2014 12:59 MST9.39P  7,190P  0.00P  
09/19/2014 13:00 MST9.39P  7,190P  0.00P  
09/19/2014 13:14 MST9.09P  6,470P  0.00P  
09/19/2014 13:15 MST9.09P  6,470P  0.00P  
09/19/2014 13:29 MST9.20P  6,730P  0.00P  
09/19/2014 13:30 MST9.20P  6,730P  0.00P  
09/19/2014 13:44 MST9.11P  6,520P  0.00P  
09/19/2014 13:45 MST9.11P  6,520P  0.00P  
09/19/2014 13:59 MST8.90P  6,040P  0.00P  
09/19/2014 14:00 MST8.90P  6,040P  0.00P  
09/19/2014 14:14 MST9.22P  6,780P  0.00P  
09/19/2014 14:15 MST9.22P  6,780P  0.00P  
09/19/2014 14:29 MST8.87P  5,970P  0.00P  
09/19/2014 14:30 MST8.87P  5,970P  0.00P  
09/19/2014 14:44 MST9.04P  6,350P  0.00P  
09/19/2014 14:45 MST9.04P  6,350P  0.00P  
09/19/2014 14:59 MST9.00P  6,250P  0.00P  
09/19/2014 15:00 MST9.00P  6,250P  0.00P  
09/19/2014 15:14 MST9.07P  6,420P  0.00P  
09/19/2014 15:15 MST9.07P  6,420P  0.00P  
09/19/2014 15:29 MST9.22P  6,780P  0.00P  
09/19/2014 15:30 MST9.22P  6,780P  0.00P  
09/19/2014 15:44 MST9.12P  6,550P  0.00P  
09/19/2014 15:45 MST9.12P  6,550P  0.00P  
09/19/2014 15:59 MST9.05P  6,370P  0.00P  
09/19/2014 16:00 MST9.05P  6,370P  0.00P  
09/19/2014 16:14 MST9.13P  6,570P  0.00P  
09/19/2014 16:15 MST9.13P  6,570P  0.00P  
09/19/2014 16:29 MST9.12P  6,550P  0.00P  
09/19/2014 16:30 MST9.12P  6,550P  0.00P  
09/19/2014 16:44 MST9.39P  7,190P  0.00P  
09/19/2014 16:45 MST9.39P  7,190P  0.00P  
09/19/2014 16:59 MST9.06P  6,400P  0.00P  
09/19/2014 17:00 MST9.06P  6,400P  0.00P  
09/19/2014 17:14 MST8.89P  6,010P  0.00P  
09/19/2014 17:15 MST8.89P  6,010P  0.00P  
09/19/2014 17:29 MST9.03P  6,330P  0.00P  
09/19/2014 17:30 MST9.03P  6,330P  0.00P  
09/19/2014 17:44 MST9.03P  6,330P  0.00P  
09/19/2014 17:45 MST9.03P  6,330P  0.00P  
09/19/2014 17:59 MST8.78P  5,780P  0.00P  
09/19/2014 18:00 MST8.78P  5,780P  0.00P  
09/19/2014 18:14 MST9.06P  6,400P  0.00P  
09/19/2014 18:15 MST9.06P  6,400P  0.00P  
09/19/2014 18:30 MST8.93P  6,110P  0.00P  
09/19/2014 18:45 MST8.68P  5,550P  0.00P  
09/19/2014 18:59 MST8.83P  5,870P  0.00P  
09/19/2014 19:00 MST8.83P  5,870P  0.00P  
09/19/2014 19:14 MST8.70P  5,600P  0.00P  
09/19/2014 19:15 MST8.70P  5,600P  0.00P  
09/19/2014 19:29 MST8.66P  5,510P  0.00P  
09/19/2014 19:30 MST8.66P  5,510P  0.00P  
09/19/2014 19:44 MST8.78P  5,780P  0.00P  
09/19/2014 19:45 MST8.78P  5,780P  0.00P  
09/19/2014 19:59 MST8.75P  5,710P  0.00P  
09/19/2014 20:00 MST8.75P  5,710P  0.00P  
09/19/2014 20:14 MST8.56P  5,310P  0.00P  
09/19/2014 20:15 MST8.56P  5,310P  0.00P  
09/19/2014 20:29 MST8.46P  5,090P  0.00P  
09/19/2014 20:30 MST8.46P  5,090P  0.00P  
09/19/2014 20:44 MST8.56P  5,310P  0.00P  
09/19/2014 20:45 MST8.56P  5,310P  0.00P  
09/19/2014 20:59 MST8.45P  5,070P  0.00P  
09/19/2014 21:00 MST8.45P  5,070P  0.00P  
09/19/2014 21:14 MST8.38P  4,950P  0.00P  
09/19/2014 21:15 MST8.38P  4,950P  0.00P  
09/19/2014 21:29 MST8.30P  4,790P  0.00P  
09/19/2014 21:30 MST8.30P  4,790P  0.00P  
09/19/2014 21:44 MST8.01P  4,260P  0.00P  
09/19/2014 21:45 MST8.01P  4,260P  0.00P  
09/19/2014 21:59 MST      0.00P  
09/19/2014 22:00 MST8.01P  4,260P  0.00P  
09/19/2014 22:14 MST7.81P  3,920P  0.00P  
09/19/2014 22:15 MST7.81P  3,920P  0.00P  
09/19/2014 22:29 MST7.80P  3,920P  0.00P  
09/19/2014 22:30 MST7.80P  3,920P  0.00P  
09/19/2014 22:44 MST7.80P  3,920P  0.00P  
09/19/2014 22:45 MST7.80P  3,920P  0.00P  
09/19/2014 22:59 MST7.69P  3,740P  0.00P  
09/19/2014 23:00 MST7.69P  3,740P  0.00P  
09/19/2014 23:14 MST7.67P  3,700P  0.00P  
09/19/2014 23:15 MST7.67P  3,700P  0.00P  
09/19/2014 23:29 MST7.45P  3,360P  0.00P  
09/19/2014 23:30 MST7.45P  3,360P  0.00P  
09/19/2014 23:44 MST7.45P  3,360P  0.00P  
09/19/2014 23:45 MST7.45P  3,360P  0.00P  
09/19/2014 23:59 MST7.34P  3,210P  0.00P  
09/20/2014 00:00 MST7.34P  3,210P  0.00P  
09/20/2014 00:14 MST7.28P  3,120P  0.00P  
09/20/2014 00:15 MST7.28P  3,120P  0.00P  
09/20/2014 00:29 MST7.17P  2,970P  0.00P  
09/20/2014 00:30 MST7.17P  2,970P  0.00P  
09/20/2014 00:44 MST7.05P  2,800P  0.00P  
09/20/2014 00:45 MST7.05P  2,800P  0.00P  
09/20/2014 00:59 MST6.99P  2,730P  0.00P  
09/20/2014 01:00 MST6.99P  2,730P  0.00P  
09/20/2014 01:14 MST6.86P  2,560P  0.00P  
09/20/2014 01:15 MST6.86P  2,560P  0.00P  
09/20/2014 01:29 MST6.76P  2,440P  0.00P  
09/20/2014 01:30 MST6.76P  2,440P  0.00P  
09/20/2014 01:44 MST6.75P  2,430P  0.00P  
09/20/2014 01:45 MST6.75P  2,430P  0.00P  
09/20/2014 01:59 MST6.60P  2,250P  0.00P  
09/20/2014 02:00 MST6.60P  2,250P  0.00P  
09/20/2014 02:14 MST6.56P  2,200P  0.00P  
09/20/2014 02:15 MST6.56P  2,200P  0.00P  
09/20/2014 02:29 MST6.48P  2,110P  0.00P  
09/20/2014 02:30 MST6.48P  2,110P  0.00P  
09/20/2014 02:44 MST6.38P  2,000P  0.00P  
09/20/2014 02:45 MST6.38P  2,000P  0.00P  
09/20/2014 02:59 MST6.26P  1,870P  0.00P  
09/20/2014 03:00 MST6.26P  1,870P  0.00P  
09/20/2014 03:14 MST6.21P  1,830P  0.00P  
09/20/2014 03:15 MST6.21P  1,830P  0.00P  
09/20/2014 03:29 MST6.10P  1,710P  0.00P  
09/20/2014 03:30 MST6.10P  1,710P  0.00P  
09/20/2014 03:44 MST6.07P  1,680P  0.00P  
09/20/2014 03:45 MST6.07P  1,680P  0.00P  
09/20/2014 03:59 MST5.99P  1,610P  0.00P  
09/20/2014 04:00 MST5.99P  1,610P  0.00P  
09/20/2014 04:14 MST5.90P  1,530P  0.00P  
09/20/2014 04:15 MST5.90P  1,530P  0.00P  
09/20/2014 04:29 MST5.83P  1,470P  0.00P  
09/20/2014 04:30 MST5.83P  1,470P  0.00P  
09/20/2014 04:44 MST5.77P  1,420P  0.00P  
09/20/2014 04:45 MST5.77P  1,420P  0.00P  
09/20/2014 04:59 MST5.71P  1,370P  0.00P  
09/20/2014 05:00 MST5.71P  1,370P  0.00P  
09/20/2014 05:14 MST5.66P  1,330P  0.00P  
09/20/2014 05:15 MST5.66P  1,330P  0.00P  
09/20/2014 05:29 MST5.58P  1,270P  0.00P  
09/20/2014 05:30 MST5.58P  1,270P  0.00P  
09/20/2014 05:44 MST5.55P  1,250P  0.00P  
09/20/2014 05:45 MST5.55P  1,250P  0.00P  
09/20/2014 05:59 MST5.54P  1,240P  0.00P  
09/20/2014 06:00 MST5.54P  1,240P  0.00P  
09/20/2014 06:14 MST5.46P  1,190P  0.00P  
09/20/2014 06:15 MST5.46P  1,190P  0.00P  
09/20/2014 06:29 MST5.43P  1,160P  0.00P  
09/20/2014 06:30 MST5.43P  1,160P  0.00P  
09/20/2014 06:44 MST5.42P  1,150P  0.00P  
09/20/2014 06:45 MST5.42P  1,150P  0.00P  
09/20/2014 06:59 MST5.37P  1,120P  0.00P  
09/20/2014 07:00 MST5.37P  1,120P  0.00P  
09/20/2014 07:14 MST5.33P  1,090P  0.00P  
09/20/2014 07:15 MST5.33P  1,090P  0.00P  
09/20/2014 07:29 MST5.29P  1,070P  0.00P  
09/20/2014 07:30 MST5.29P  1,070P  0.00P  
09/20/2014 07:44 MST5.28P  1,060P  0.00P  
09/20/2014 07:45 MST5.28P  1,060P  0.00P  
09/20/2014 07:59 MST5.19P  995P  0.00P  
09/20/2014 08:00 MST5.19P  995P  0.00P  
09/20/2014 08:14 MST5.19P  995P  0.00P  
09/20/2014 08:15 MST5.19P  995P  0.00P  
09/20/2014 08:29 MST5.17P  980P  0.00P  
09/20/2014 08:30 MST5.17P  980P  0.00P  
09/20/2014 08:44 MST5.22P  1,020P  0.00P  
09/20/2014 08:45 MST5.22P  1,020P  0.00P  
09/20/2014 08:59 MST5.18P  988P  0.00P  
09/20/2014 09:00 MST5.18P  988P  0.00P  
09/20/2014 09:14 MST5.22P  1,020P  0.00P  
09/20/2014 09:15 MST5.22P  1,020P  0.00P  
09/20/2014 09:29 MST5.23P  1,020P  0.00P  
09/20/2014 09:30 MST5.23P  1,020P  0.00P  
09/20/2014 09:44 MST5.20P  1,000P  0.00P  
09/20/2014 09:45 MST5.20P  1,000P  0.00P  
09/20/2014 09:59 MST5.26P  1,040P  0.00P  
09/20/2014 10:00 MST5.26P  1,040P  0.00P  
09/20/2014 10:14 MST5.28P  1,060P  0.00P  
09/20/2014 10:15 MST5.28P  1,060P  0.00P  
09/20/2014 10:29 MST5.30P  1,070P  0.00P  
09/20/2014 10:30 MST5.30P  1,070P  0.00P  
09/20/2014 10:44 MST5.33P  1,090P  0.00P  
09/20/2014 10:45 MST5.33P  1,090P  0.00P  
09/20/2014 10:59 MST5.35P  1,110P  0.00P  
09/20/2014 11:00 MST5.35P  1,110P  0.00P  
09/20/2014 11:14 MST5.35P  1,110P  0.00P  
09/20/2014 11:15 MST5.35P  1,110P  0.00P  
09/20/2014 11:30 MST5.36P  1,110P  0.00P  
09/20/2014 11:45 MST5.39P  1,140P  0.00P  
09/20/2014 11:59 MST5.42P  1,150P  0.00P  
09/20/2014 12:00 MST5.42P  1,150P  0.00P  
09/20/2014 12:14 MST5.44P  1,170P  0.00P  
09/20/2014 12:15 MST5.44P  1,170P  0.00P  
09/20/2014 12:29 MST5.43P  1,160P  0.00P  
09/20/2014 12:30 MST5.43P  1,160P  0.00P  
09/20/2014 12:44 MST5.47P  1,190P  0.00P  
09/20/2014 12:45 MST5.47P  1,190P  0.00P  
09/20/2014 12:59 MST5.49P  1,200P  0.00P  
09/20/2014 13:00 MST5.49P  1,200P  0.00P  
09/20/2014 13:14 MST5.53P  1,240P  0.00P  
09/20/2014 13:15 MST5.53P  1,240P  0.00P  
09/20/2014 13:29 MST5.53P  1,240P  0.00P  
09/20/2014 13:30 MST5.53P  1,240P  0.00P  
09/20/2014 13:44 MST5.57P  1,260P  0.00P  
09/20/2014 13:45 MST5.57P  1,260P  0.00P  
09/20/2014 13:59 MST5.56P  1,260P  0.00P  
09/20/2014 14:00 MST5.56P  1,260P  0.00P  
09/20/2014 14:14 MST5.57P  1,260P  0.00P  
09/20/2014 14:15 MST5.57P  1,260P  0.00P  
09/20/2014 14:29 MST5.59P  1,280P  0.00P  
09/20/2014 14:30 MST5.59P  1,280P  0.00P  
09/20/2014 14:44 MST5.59P  1,280P  0.00P  
09/20/2014 14:45 MST5.59P  1,280P  0.00P  
09/20/2014 14:59 MST5.60P  1,290P  0.00P  
09/20/2014 15:00 MST5.60P  1,290P  0.00P  
09/20/2014 15:14 MST5.53P  1,240P  0.00P  
09/20/2014 15:15 MST5.53P  1,240P  0.00P  
09/20/2014 15:29 MST5.58P  1,270P  0.00P  
09/20/2014 15:30 MST5.58P  1,270P  0.00P  
09/20/2014 15:44 MST5.53P  1,240P  0.00P  
09/20/2014 15:45 MST5.53P  1,240P  0.00P  
09/20/2014 15:59 MST5.50P  1,210P  0.00P  
09/20/2014 16:00 MST5.50P  1,210P  0.00P  
09/20/2014 16:14 MST5.48P  1,190P  0.00P  
09/20/2014 16:15 MST5.48P  1,190P  0.00P  
09/20/2014 16:29 MST5.45P  1,180P  0.00P  
09/20/2014 16:30 MST5.45P  1,180P  0.00P  
09/20/2014 16:44 MST5.43P  1,160P  0.00P  
09/20/2014 16:45 MST5.43P  1,160P  0.00P  
09/20/2014 16:59 MST5.38P  1,130P  0.00P  
09/20/2014 17:00 MST5.38P  1,130P  0.00P  
09/20/2014 17:14 MST5.37P  1,120P  0.00P  
09/20/2014 17:15 MST5.37P  1,120P  0.00P  
09/20/2014 17:29 MST5.34P  1,100P  0.00P  
09/20/2014 17:30 MST5.34P  1,100P  0.00P  
09/20/2014 17:44 MST5.29P  1,070P  0.00P  
09/20/2014 17:45 MST5.29P  1,070P  0.00P  
09/20/2014 17:59 MST5.30P  1,070P  0.00P  
09/20/2014 18:00 MST5.30P  1,070P  0.00P  
09/20/2014 18:14 MST5.29P  1,070P  0.00P  
09/20/2014 18:15 MST5.29P  1,070P  0.00P  
09/20/2014 18:29 MST5.23P  1,020P  0.00P  
09/20/2014 18:30 MST5.23P  1,020P  0.00P  
09/20/2014 18:44 MST5.22P  1,020P  0.00P  
09/20/2014 18:45 MST5.22P  1,020P  0.00P  
09/20/2014 18:59 MST5.20P  1,000P  0.00P  
09/20/2014 19:00 MST5.20P  1,000P  0.00P  
09/20/2014 19:14 MST5.14P  958P  0.00P  
09/20/2014 19:15 MST5.14P  958P  0.00P  
09/20/2014 19:29 MST5.10P  935P  0.00P  
09/20/2014 19:30 MST5.10P  935P  0.00P  
09/20/2014 19:44 MST5.09P  928P  0.00P  
09/20/2014 19:45 MST5.09P  928P  0.00P  
09/20/2014 19:59 MST5.05P  906P  0.00P  
09/20/2014 20:00 MST5.05P  906P  0.00P  
09/20/2014 20:14 MST5.01P  878P  0.00P  
09/20/2014 20:15 MST5.01P  878P  0.00P  
09/20/2014 20:29 MST4.98P  857P  0.00P  
09/20/2014 20:30 MST4.98P  857P  0.00P  
09/20/2014 20:44 MST4.95P  843P  0.00P  
09/20/2014 20:45 MST4.95P  843P  0.00P  
09/20/2014 20:59 MST4.94P  837P  0.00P  
09/20/2014 21:00 MST4.94P  837P  0.00P  
09/20/2014 21:14 MST4.89P  803P  0.00P  
09/20/2014 21:15 MST4.89P  803P  0.00P  
09/20/2014 21:29 MST4.87P  796P  0.00P  
09/20/2014 21:30 MST4.87P  796P  0.00P  
09/20/2014 21:44 MST4.84P  777P  0.00P  
09/20/2014 21:45 MST4.84P  777P  0.00P  
09/20/2014 21:59 MST4.80P  751P  0.00P  
09/20/2014 22:00 MST4.80P  751P  0.00P  
09/20/2014 22:14 MST4.80P  751P  0.00P  
09/20/2014 22:15 MST4.80P  751P  0.00P  
09/20/2014 22:29 MST4.75P  726P  0.00P  
09/20/2014 22:30 MST4.75P  726P  0.00P  
09/20/2014 22:44 MST4.74P  720P  0.00P  
09/20/2014 22:45 MST4.74P  720P  0.00P  
09/20/2014 22:59 MST4.72P  707P  0.00P  
09/20/2014 23:00 MST4.72P  707P  0.00P  
09/20/2014 23:14 MST4.72P  707P  0.00P  
09/20/2014 23:15 MST4.72P  707P  0.00P  
09/20/2014 23:29 MST4.69P  695P  0.00P  
09/20/2014 23:30 MST4.69P  695P  0.00P  
09/20/2014 23:44 MST4.66P  677P  0.00P  
09/20/2014 23:45 MST4.66P  677P  0.00P  
09/20/2014 23:59 MST4.68P  689P  0.00P  
09/21/2014 00:00 MST4.68P  689P  0.00P  
09/21/2014 00:14 MST4.66P  677P  0.00P  
09/21/2014 00:15 MST4.66P  677P  0.00P  
09/21/2014 00:29 MST4.65P  671P  0.00P  
09/21/2014 00:30 MST4.65P  671P  0.00P  
09/21/2014 00:44 MST4.63P  660P  0.00P  
09/21/2014 00:45 MST4.63P  660P  0.00P  
09/21/2014 00:59 MST4.61P  654P  0.00P  
09/21/2014 01:00 MST4.61P  654P  0.00P  
09/21/2014 01:14 MST4.62P  660P  0.00P  
09/21/2014 01:15 MST4.62P  660P  0.00P  
09/21/2014 01:29 MST4.60P  648P  0.00P  
09/21/2014 01:30 MST4.60P  648P  0.00P  
09/21/2014 01:44 MST4.58P  636P  0.00P  
09/21/2014 01:45 MST4.58P  636P  0.00P  
09/21/2014 01:59 MST4.56P  625P  0.00P  
09/21/2014 02:00 MST4.56P  625P  0.00P  
09/21/2014 02:14 MST4.54P  614P  0.00P  
09/21/2014 02:15 MST4.54P  614P  0.00P  
09/21/2014 02:29 MST4.56P  625P  0.00P  
09/21/2014 02:30 MST4.56P  625P  0.00P  
09/21/2014 02:44 MST4.53P  614P  0.00P  
09/21/2014 02:45 MST4.53P  614P  0.00P  
09/21/2014 02:59 MST4.52P  608P  0.00P  
09/21/2014 03:00 MST4.52P  608P  0.00P  
09/21/2014 03:14 MST4.51P  603P  0.00P  
09/21/2014 03:15 MST4.51P  603P  0.00P  
09/21/2014 03:29 MST4.49P  592P  0.00P  
09/21/2014 03:30 MST4.49P  592P  0.00P  
09/21/2014 03:44 MST4.48P  586P  0.00P  
09/21/2014 03:45 MST4.48P  586P  0.00P  
09/21/2014 03:59 MST4.48P  586P  0.00P  
09/21/2014 04:00 MST4.48P  586P  0.00P  
09/21/2014 04:14 MST4.46P  575P  0.00P  
09/21/2014 04:15 MST4.46P  575P  0.00P  
09/21/2014 04:29 MST4.45P  575P  0.00P  
09/21/2014 04:30 MST4.45P  575P  0.00P  
09/21/2014 04:44 MST4.42P  560P  0.00P  
09/21/2014 04:45 MST4.42P  560P  0.00P  
09/21/2014 04:59 MST4.41P  554P  0.00P  
09/21/2014 05:00 MST4.41P  554P  0.00P  
09/21/2014 05:14 MST4.41P  554P  0.00P  
09/21/2014 05:15 MST4.41P  554P  0.00P  
09/21/2014 05:29 MST4.39P  544P  0.00P  
09/21/2014 05:30 MST4.39P  544P  0.00P  
09/21/2014 05:44 MST4.39P  544P  0.01P  
09/21/2014 05:45 MST4.39P  544P  0.00P  
09/21/2014 05:59 MST4.37P  534P  0.00P  
09/21/2014 06:00 MST4.37P  534P  0.00P  
09/21/2014 06:14 MST4.36P  534P  0.00P  
09/21/2014 06:15 MST4.36P  534P  0.00P  
09/21/2014 06:29 MST4.34P  523P  0.00P  
09/21/2014 06:30 MST4.34P  523P  0.00P  
09/21/2014 06:44 MST4.34P  523P  0.00P  
09/21/2014 06:45 MST4.34P  523P  0.00P  
09/21/2014 06:59 MST4.31P  508P  0.00P  
09/21/2014 07:00 MST4.31P  508P  0.00P  
09/21/2014 07:14 MST4.30P  504P  0.00P  
09/21/2014 07:15 MST4.30P  504P  0.00P  
09/21/2014 07:29 MST4.29P  499P  0.00P  
09/21/2014 07:30 MST4.29P  499P  0.00P  
09/21/2014 07:44 MST4.29P  499P  0.00P  
09/21/2014 07:45 MST4.29P  499P  0.00P  
09/21/2014 07:59 MST4.28P  499P  0.00P  
09/21/2014 08:00 MST4.28P  499P  0.00P  
09/21/2014 08:14 MST4.26P  489P  0.00P  
09/21/2014 08:15 MST4.26P  489P  0.00P  
09/21/2014 08:29 MST4.26P  489P  0.00P  
09/21/2014 08:30 MST4.26P  489P  0.00P  
09/21/2014 08:44 MST4.26P  489P  0.00P  
09/21/2014 08:45 MST4.26P  489P  0.00P  
09/21/2014 08:59 MST4.25P  484P  0.00P  
09/21/2014 09:00 MST4.25P  484P  0.00P  
09/21/2014 09:14 MST4.25P  484P  0.00P  
09/21/2014 09:15 MST4.25P  484P  0.00P  
09/21/2014 09:29 MST4.24P  479P  0.00P  
09/21/2014 09:30 MST4.24P  479P  0.00P  
09/21/2014 09:44 MST4.25P  484P  0.00P  
09/21/2014 09:45 MST4.25P  484P  0.00P  
09/21/2014 09:59 MST4.25P  484P  0.00P  
09/21/2014 10:00 MST4.25P  484P  0.00P  
09/21/2014 10:14 MST4.26P  489P  0.00P  
09/21/2014 10:15 MST4.26P  489P  0.00P  
09/21/2014 10:29 MST4.28P  499P  0.00P  
09/21/2014 10:30 MST4.28P  499P  0.00P  
09/21/2014 10:44 MST4.28P  499P  0.00P  
09/21/2014 10:45 MST4.28P  499P  0.00P  
09/21/2014 10:59 MST4.30P  504P  0.00P  
09/21/2014 11:00 MST4.30P  504P  0.00P  
09/21/2014 11:14 MST4.32P  513P  0.00P  
09/21/2014 11:15 MST4.32P  513P  0.00P  
09/21/2014 11:29 MST4.33P  518P  0.00P  
09/21/2014 11:30 MST4.33P  518P  0.00P  
09/21/2014 11:44 MST4.36P  534P  0.00P  
09/21/2014 11:45 MST4.36P  534P  0.00P  
09/21/2014 11:59 MST4.38P  539P  0.00P  
09/21/2014 12:00 MST4.38P  539P  0.00P  
09/21/2014 12:14 MST4.38P  539P  0.00P  
09/21/2014 12:15 MST4.38P  539P  0.00P  
09/21/2014 12:29 MST4.39P  544P  0.00P  
09/21/2014 12:30 MST4.39P  544P  0.00P  
09/21/2014 12:44 MST4.40P  549P  0.00P  
09/21/2014 12:45 MST4.40P  549P  0.00P  
09/21/2014 12:59 MST4.40P  549P  0.00P  
09/21/2014 13:00 MST4.40P  549P  0.00P  
09/21/2014 13:14 MST4.39P  544P  0.00P  
09/21/2014 13:15 MST4.39P  544P  0.00P  
09/21/2014 13:29 MST4.40P  549P  0.00P  
09/21/2014 13:30 MST4.40P  549P  0.00P  
09/21/2014 13:44 MST4.39P  544P  0.00P  
09/21/2014 13:45 MST4.39P  544P  0.00P  
09/21/2014 13:59 MST4.39P  544P  0.00P  
09/21/2014 14:00 MST4.39P  544P  0.00P  
09/21/2014 14:14 MST4.41P  554P  0.00P  
09/21/2014 14:29 MST4.38P  539P  0.00P  
09/21/2014 14:44 MST4.38P  539P  0.00P  

Explanation
  P  Provisional data subject to revision.